Eltham High School

Historical Weather Data

                  Temp     Hi    Low   Out         Wind        Wind    Hi    Hi   Wind   Heat          THSW                Rain  Solar   Solar Hi Solar         UV    Hi     Heat    Cool    In     In          Wind  Wind    ISS   Arc.
  Date    Time     Out   Temp   Temp   Hum    Dew Speed   Dir   Run Speed   Dir  Chill  Index    THW  Index   Bar    Rain  Rate   Rad.  Energy    Rad.    UV   Dose   UV     D-D     D-D    Temp   Hum     ET   Samp   Tx   Recept  Int.
------------------------------------------------------------------------------------------------------------------------------------------------------------------------------------------------------------------------------------------
16/02/19 12:30a   16.4   16.9   16.4    83   13.5   0.0   ---  0.00   0.0   ---   16.4   16.6   16.6   14.9  1033.4  0.00   0.0     0     0.00      0     0.0  0.00   0.0   0.039   0.000   26.9    49    0.00   702    1    100.0   30 
16/02/19  1:00a   15.9   16.4   15.9    84   13.2   0.0   ---  0.00   0.0   ---   15.9   15.9   15.9   14.3  1033.3  0.00   0.0     0     0.00      0     0.0  0.00   0.0   0.051   0.000   26.9    49    0.03   700    1    100.0   30 
16/02/19  1:30a   15.2   15.9   15.2    86   12.9   0.0   ---  0.00   0.0   ---   15.2   15.3   15.3   13.7  1033.0  0.00   0.0     0     0.00      0     0.0  0.00   0.0   0.065   0.000   26.9    49    0.00   702    1    100.0   30 
16/02/19  2:00a   15.3   15.3   15.1    88   13.3   0.0   ---  0.00   0.0   ---   15.3   15.4   15.4   13.8  1032.8  0.00   0.0     0     0.00      0     0.0  0.00   0.0   0.064   0.000   26.9    49    0.00   701    1    100.0   30 
16/02/19  2:30a   15.3   15.3   15.3    88   13.3   0.0   ---  0.00   0.0   ---   15.3   15.4   15.4   13.8  1032.6  0.00   0.0     0     0.00      0     0.0  0.00   0.0   0.064   0.000   26.8    49    0.00   700    1    100.0   30 
16/02/19  3:00a   14.8   15.3   14.8    88   12.9   0.0   ---  0.00   0.0   ---   14.8   14.9   14.9   13.3  1032.4  0.00   0.0     0     0.00      0     0.0  0.00   0.0   0.073   0.000   26.8    49    0.00   681    1     99.6   30 
16/02/19  3:30a   14.8   14.8   14.6    90   13.2   0.0   ---  0.00   0.0   ---   14.8   14.9   14.9   13.3  1032.3  0.00   0.0     0     0.00      0     0.0  0.00   0.0   0.073   0.000   26.8    49    0.00   702    1    100.0   30 
16/02/19  4:00a   15.0   15.0   14.8    90   13.4   0.0   ---  0.00   0.0   ---   15.0   15.1   15.1   13.5  1032.2  0.00   0.0     0     0.00      0     0.0  0.00   0.0   0.069   0.000   26.8    48    0.00   701    1    100.0   30 
16/02/19  4:30a   15.4   15.5   15.0    90   13.8   0.0   ---  0.00   0.0   ---   15.4   15.6   15.6   14.0  1032.1  0.00   0.0     0     0.00      0     0.0  0.00   0.0   0.060   0.000   26.8    46    0.00   701    1    100.0   30 
16/02/19  5:00a   15.6   15.6   15.4    89   13.8   0.0   ---  0.00   0.0   ---   15.6   15.8   15.8   14.2  1031.9  0.00   0.0     0     0.00      0     0.0  0.00   0.0   0.057   0.000   26.7    47    0.00   701    1    100.0   30 
16/02/19  5:30a   15.9   15.9   15.6    89   14.1   0.0   ---  0.00   0.0   ---   15.9   16.1   16.1   14.6  1031.8  0.00   0.0     0     0.00      0     0.0  0.00   0.0   0.050   0.000   26.8    46    0.00   702    1    100.0   30 
16/02/19  6:00a   16.1   16.1   15.9    88   14.1   0.0   ---  0.00   0.0   ---   16.1   16.3   16.3   14.7  1031.7  0.00   0.0     0     0.00      0     0.0  0.00   0.0   0.046   0.000   26.8    45    0.00   654    1     95.6   30 
16/02/19  6:30a   16.3   16.3   16.1    88   14.3   0.0   ---  0.00   0.0   ---   16.3   16.6   16.6   15.0  1031.5  0.00   0.0     0     0.00      0     0.0  0.00   0.0   0.042   0.000   26.7    46    0.00   703    1    100.0   30 
16/02/19  7:00a   16.8   16.8   16.3    88   14.8   0.0   SSW  0.00   1.6   SSW   16.8   17.1   17.1   16.1  1031.7  0.00   0.0     0     0.00      0     0.0  0.00   0.0   0.032   0.000   26.8    45    0.00   702    1    100.0   30 
16/02/19  7:30a   17.2   17.3   16.8    86   14.9   0.0   SSW  0.00   3.2    SW   17.2   17.5   17.5   16.7  1032.0  0.00   0.0     8     0.34     21     0.0  0.00   0.0   0.023   0.000   26.7    45    0.00   682    1     99.7   30 
16/02/19  8:00a   17.4   17.4   17.2    85   14.9   0.0   ---  0.00   0.0   ---   17.4   17.7   17.7   17.6  1031.9  0.00   0.0    39     1.68     54     0.0  0.00   0.0   0.019   0.000   26.8    45    0.03   701    1    100.0   30 
16/02/19  8:30a   17.8   17.8   17.4    83   14.9   0.0   ---  0.00   0.0   ---   17.8   18.2   18.2   19.1  1032.0  0.00   0.0    97     4.17    148     0.0  0.00   0.0   0.010   0.000   26.7    45    0.00   700    1    100.0   30 
16/02/19  9:00a   18.5   18.5   17.8    82   15.4   0.0   WSW  0.00   1.6   WSW   18.5   18.9   18.9   21.3  1032.1  0.00   0.0   193     8.30    373     0.4  0.09   0.8   0.000   0.003   26.8    44    0.08   703    1    100.0   30 
16/02/19  9:30a   19.4   19.4   18.5    79   15.7   0.0   ---  0.00   0.0   ---   19.4   19.9   19.9   24.1  1032.1  0.00   0.0   341    14.66    608     1.1  0.24   1.8   0.000   0.022   26.8    45    0.00   701    1    100.0   30 
16/02/19 10:00a   20.2   20.2   19.4    75   15.6   0.0   WSW  0.00  11.3   WSW   20.2   20.7   20.7   26.5  1031.8  0.00   0.0   567    24.38    603     2.0  0.43   2.4   0.000   0.038   26.8    44    0.25   703    1    100.0   30 
16/02/19 10:30a   21.5   21.6   20.2    69   15.6   0.0    SW  0.00  16.1     S   21.5   21.6   21.6   27.6  1031.8  0.00   0.0   622    26.75    675     2.9  0.62   3.3   0.000   0.066   26.9    45    0.00   699    1    100.0   30 
16/02/19 11:00a   22.5   22.5   21.5    67   16.1   0.0    SW  0.00  16.1     S   22.5   22.9   22.9   29.1  1031.5  0.00   0.0   712    30.62    752     3.8  0.81   4.3   0.000   0.087   26.9    45    0.38   701    1    100.0   30 
16/02/19 11:30a   24.1   24.1   22.5    61   16.1   0.0     W  0.00   4.8     W   24.1   24.6   24.6   30.9  1031.1  0.00   0.0   788    33.89    819     4.8  1.03   5.2   0.000   0.119   26.9    44    0.00   700    1    100.0   30 
16/02/19 12:00p   25.0   25.0   24.1    57   15.9   0.0     W  0.00  11.3     N   25.0   25.3   25.3   31.7  1030.5  0.00   0.0   846    36.38    881     5.6  1.20   6.0   0.000   0.139   26.9    45    0.51   703    1    100.0   30 
16/02/19 12:30p   26.3   26.3   25.0    52   15.7   1.6    NW  0.80  12.9     W   26.3   26.6   26.6   32.8  1029.9  0.00   0.0   896    38.53    916     6.4  1.37   6.7   0.000   0.167   26.9    44    0.00   701    1    100.0   30 
16/02/19  1:00p   27.1   27.1   26.3    51   16.1   1.6    SW  0.80  16.1   WSW   27.1   27.2   27.2   33.3  1029.4  0.00   0.0   928    39.91    944     7.0  1.50   7.3   0.000   0.182   26.9    46    0.58   702    1    100.0   30 
16/02/19  1:30p   27.7   27.9   27.1    49   16.0   3.2     S  1.61  12.9     S   27.7   27.9   27.9   33.7  1028.9  0.00   0.0   941    40.47    944     7.3  1.56   7.4   0.000   0.196   26.9    43    0.00   701    1    100.0   30 
16/02/19  2:00p   28.7   28.8   27.7    46   16.0   4.8     S  2.41  20.9    SW   28.7   29.3   29.3   34.7  1028.4  0.00   0.0   931    40.04    939     7.3  1.56   7.4   0.000   0.216   27.0    44    0.63   700    1    100.0   30 
16/02/19  2:30p   27.2   28.7   27.2    52   16.5   8.0   SSW  4.02  24.1   WSW   27.2   27.4   27.4   33.1  1028.4  0.00   0.0   909    39.09    926     7.0  1.50   7.2   0.000   0.184   27.0    43    0.00   701    1    100.0   30 
16/02/19  3:00p   26.8   27.4   26.8    53   16.4   6.4   WSW  3.22  20.9   WSW   26.8   27.1   27.1   32.9  1028.1  0.00   0.0   880    37.84    898     6.6  1.41   6.8   0.000   0.176   27.2    44    0.63   699    1    100.0   30 
16/02/19  3:30p   26.8   26.9   26.7    53   16.4   6.4    SW  3.22  17.7     S   26.8   27.1   27.1   33.2  1027.9  0.00   0.0   842    36.21    861     5.9  1.26   6.3   0.000   0.176   27.2    43    0.00   701    1    100.0   30 
16/02/19  4:00p   26.9   26.9   26.6    52   16.3   6.4    SW  3.22  19.3   WSW   26.9   27.2   27.2   33.6  1027.6  0.00   0.0   779    33.50    844     5.0  1.07   5.7   0.000   0.179   27.3    43    0.56   681    1     99.6   30 
16/02/19  4:30p   26.4   27.0   26.2    53   16.1   4.8    SW  2.41  20.9   WSW   26.4   26.7   26.7   32.6  1027.6  0.00   0.0   543    23.35    840     3.5  0.75   4.3   0.000   0.169   27.4    44    0.00   699    1    100.0   30 
16/02/19  5:00p   25.8   26.7   25.7    54   15.8   4.8    SW  2.41  16.1    SW   25.8   26.1   26.1   31.4  1027.5  0.00   0.0   427    18.36    791     2.5  0.54   4.0   0.000   0.156   27.6    44    0.36   702    1    100.0   30 
16/02/19  5:30p   25.6   26.4   25.6    53   15.3   4.8    SW  2.41  16.1   SSW   25.6   25.8   25.8   31.2  1027.5  0.00   0.0   408    17.55    737     2.0  0.43   3.0   0.000   0.152   27.6    44    0.00   699    1    100.0   30 
16/02/19  6:00p   26.0   26.6   25.6    57   16.8   4.8    SW  2.41  17.7   WSW   26.0   26.4   26.4   33.2  1027.6  0.00   0.0   449    19.31    585     1.6  0.34   2.0   0.000   0.160   27.7    44    0.30   702    1    100.0   30 
16/02/19  6:30p   24.8   26.0   24.8    61   16.7   1.6   WSW  0.80  14.5     W   24.8   25.3   25.3   29.2  1027.7  0.00   0.0   232     9.98    390     0.9  0.19   1.2   0.000   0.134   27.7    44    0.00   700    1    100.0   30 
16/02/19  7:00p   23.3   24.8   23.3    68   17.0   1.6   WSW  0.80  14.5   WSW   23.3   24.1   24.1   26.1  1027.7  0.00   0.0   129     5.55    202     0.2  0.04   0.6   0.000   0.103   27.7    44    0.13   702    1    100.0   30 
16/02/19  7:30p   22.6   23.3   22.6    71   17.0   0.0   WSW  0.00  11.3   WSW   22.6   23.1   23.1   22.7  1028.1  0.00   0.0    83     3.57    132     0.0  0.00   0.0   0.000   0.088   27.6    44    0.00   700    1    100.0   30 
16/02/19  8:00p   22.1   22.6   22.1    68   15.9   0.0     S  0.00  12.9     S   22.1   22.3   22.3   21.1  1028.3  0.00   0.0    20     0.86     37     0.0  0.00   0.0   0.000   0.078   27.4    44    0.05   701    1    100.0   30 
16/02/19  8:30p   21.2   22.1   21.2    70   15.5   0.0     S  0.00  12.9     S   21.2   21.3   21.3   19.9  1028.8  0.00   0.0     2     0.09      9     0.0  0.00   0.0   0.000   0.060   27.2    43    0.00   703    1    100.0   30 
16/02/19  9:00p   20.5   21.2   20.5    72   15.3   0.0     S  0.00   8.0     S   20.5   20.8   20.8   19.3  1029.2  0.00   0.0     0     0.00      0     0.0  0.00   0.0   0.000   0.045   27.0    44    0.00   701    1    100.0   30 
16/02/19  9:30p   19.8   20.5   19.8    76   15.5   0.0     S  0.00   4.8     S   19.8   20.3   20.3   18.8  1029.4  0.00   0.0     0     0.00      0     0.0  0.00   0.0   0.000   0.031   26.9    46    0.00   701    1    100.0   30 
16/02/19 10:00p   19.2   19.8   19.2    79   15.5   0.0     S  0.00   3.2     S   19.2   19.7   19.7   18.2  1029.7  0.00   0.0     0     0.00      0     0.0  0.00   0.0   0.000   0.019   26.9    48    0.03   700    1    100.0   30 
16/02/19 10:30p   18.8   19.2   18.8    80   15.3   0.0     S  0.00   3.2     S   18.8   19.3   19.3   17.8  1029.8  0.00   0.0     0     0.00      0     0.0  0.00   0.0   0.000   0.010   27.0    49    0.00   667    1     97.5   30 
16/02/19 11:00p   18.4   18.8   18.4    81   15.1   0.0   ---  0.00   0.0   ---   18.4   18.9   18.9   17.4  1029.4  0.00   0.0     0     0.00      0     0.0  0.00   0.0   0.000   0.002   26.9    48    0.03   702    1    100.0   30 
16/02/19 11:30p   17.9   18.4   17.9    83   15.0   0.0   ---  0.00   0.0   ---   17.9   18.3   18.3   16.8  1029.3  0.00   0.0     0     0.00      0     0.0  0.00   0.0   0.008   0.000   26.9    50    0.00   701    1    100.0   30 
17/02/19 12:00a   17.4   17.9   17.4    84   14.7   0.0   ---  0.00   0.0   ---   17.4   17.7   17.7   16.2  1029.1  0.00   0.0     0     0.00      0     0.0  0.00   0.0   0.019   0.000   26.9    50    0.03   702    1    100.0   30 
17/02/19 12:30a   16.8   17.4   16.8    85   14.3   0.0   ---  0.00   0.0   ---   16.8   17.1   17.1   15.5  1028.6  0.00   0.0     0     0.00      0     0.0  0.00   0.0   0.031   0.000   26.9    49    0.00   700    1    100.0   30 
17/02/19  1:00a   16.1   16.8   16.1    87   13.9   0.0   ---  0.00   0.0   ---   16.1   16.3   16.3   14.7  1028.3  0.00   0.0     0     0.00      0     0.0  0.00   0.0   0.046   0.000   26.9    50    0.00   703    1    100.0   30 
17/02/19  1:30a   15.5   16.2   15.5    89   13.7   0.0   ---  0.00   0.0   ---   15.5   15.7   15.7   14.1  1028.0  0.00   0.0     0     0.00      0     0.0  0.00   0.0   0.059   0.000   26.9    49    0.00   675    1     98.7   30 
17/02/19  2:00a   15.0   15.5   15.0    90   13.4   0.0   ---  0.00   0.0   ---   15.0   15.1   15.1   13.6  1027.5  0.00   0.0     0     0.00      0     0.0  0.00   0.0   0.069   0.000   26.8    49    0.00   702    1    100.0   30 
17/02/19  2:30a   14.5   15.0   14.5    91   13.0   0.0   ---  0.00   0.0   ---   14.5   14.6   14.6   12.9  1027.0  0.00   0.0     0     0.00      0     0.0  0.00   0.0   0.080   0.000   26.8    49    0.00   702    1    100.0   30 
17/02/19  3:00a   14.2   14.6   14.2    92   12.9   0.0   ---  0.00   0.0   ---   14.2   14.3   14.3   12.7  1026.7  0.00   0.0     0     0.00      0     0.0  0.00   0.0   0.087   0.000   26.7    49    0.00   701    1    100.0   30 
17/02/19  3:30a   14.1   14.2   14.1    93   13.0   0.0   ---  0.00   0.0   ---   14.1   14.2   14.2   12.6  1026.4  0.00   0.0     0     0.00      0     0.0  0.00   0.0   0.088   0.000   26.8    48    0.00   701    1    100.0   30 
17/02/19  4:00a   13.8   14.2   13.8    93   12.7   0.0   ---  0.00   0.0   ---   13.8   13.9   13.9   12.3  1026.0  0.00   0.0     0     0.00      0     0.0  0.00   0.0   0.094   0.000   26.9    48    0.00   699    1    100.0   30 
17/02/19  4:30a   13.8   13.9   13.8    93   12.7   0.0     S  0.00   4.8     S   13.8   13.9   13.9   12.3  1025.6  0.00   0.0     0     0.00      0     0.0  0.00   0.0   0.095   0.000   26.9    47    0.00   700    1    100.0   30 
17/02/19  5:00a   13.6   13.8   13.6    93   12.5   0.0   ---  0.00   0.0   ---   13.6   13.7   13.7   12.1  1025.6  0.00   0.0     0     0.00      0     0.0  0.00   0.0   0.098   0.000   26.9    46    0.00   698    1    100.0   30 
17/02/19  5:30a   13.3   13.6   13.3    94   12.4   0.0   ---  0.00   0.0   ---   13.3   13.4   13.4   11.8  1025.3  0.00   0.0     0     0.00      0     0.0  0.00   0.0   0.104   0.000   26.8    46    0.00   702    1    100.0   30 
17/02/19  6:00a   13.1   13.3   13.1    94   12.2   0.0   ---  0.00   0.0   ---   13.1   13.2   13.2   11.6  1025.4  0.00   0.0     0     0.00      0     0.0  0.00   0.0   0.109   0.000   26.8    45    0.00   701    1    100.0   30 
17/02/19  6:30a   12.4   13.1   12.4    93   11.3   0.0   ---  0.00   0.0   ---   12.4   12.6   12.6   10.9  1025.6  0.00   0.0     0     0.00      0     0.0  0.00   0.0   0.123   0.000   26.8    45    0.00   702    1    100.0   30 
17/02/19  7:00a   11.9   12.4   11.9    94   11.0   0.0   ---  0.00   0.0   ---   11.9   12.1   12.1   11.1  1025.9  0.00   0.0     6     0.26     14     0.0  0.00   0.0   0.133   0.000   26.9    45    0.00   700    1    100.0   30 
17/02/19  7:30a   12.2   12.2   11.9    95   11.4   0.0   ---  0.00   0.0   ---   12.2   12.3   12.3   11.8  1026.1  0.00   0.0    26     1.12     40     0.0  0.00   0.0   0.128   0.000   26.8    45    0.00   701    1    100.0   30 
17/02/19  8:00a   13.0   13.0   12.2    95   12.2   0.0   ---  0.00   0.0   ---   13.0   13.1   13.1   13.9  1026.0  0.25   0.0    84     3.61    174     0.0  0.00   0.0   0.111   0.000   26.8    44    0.03   701    1    100.0   30 
17/02/19  8:30a   14.6   14.6   13.0    95   13.8   0.0   ---  0.00   0.0   ---   14.6   14.7   14.7   17.8  1026.0  0.00   0.0   219     9.42    271     0.1  0.02   0.5   0.079   0.000   26.8    44    0.00   701    1    100.0   30 
17/02/19  9:00a   16.2   16.2   14.5    92   14.9   0.0     S  0.00   3.2     S   16.2   16.4   16.4   20.7  1025.9  0.00   0.0   328    14.11    390     0.8  0.17   1.1   0.045   0.000   26.8    44    0.13   700    1    100.0   30 
17/02/19  9:30a   18.7   18.7   16.2    84   15.9   0.0   ---  0.00   0.0   ---   18.7   19.2   19.2   24.6  1025.6  0.00   0.0   461    19.83    577     1.5  0.32   1.9   0.000   0.007   26.7    44    0.00   700    1    100.0   30 
17/02/19 10:00a   19.7   19.7   18.7    80   16.2   0.0     S  0.00   6.4     S   19.7   20.4   20.4   26.1  1025.7  0.00   0.0   530    22.79    686     2.1  0.45   2.6   0.000   0.029   26.9    44    0.28   702    1    100.0   30 
17/02/19 10:30a   21.7   21.7   19.7    72   16.4   0.0     S  0.00   1.6     S   21.7   22.0   22.0   28.1  1025.4  0.00   0.0   646    27.78    705     3.1  0.66   3.6   0.000   0.069   26.8    45    0.00   702    1    100.0   30 
17/02/19 11:00a   24.3   24.3   21.7    63   16.8   0.0     S  0.00   4.8     S   24.3   24.9   24.9   31.2  1025.4  0.00   0.0   761    32.73    819     4.2  0.90   4.7   0.000   0.125   26.9    43    0.41   701    1    100.0   30 
17/02/19 11:30a   25.7   25.7   24.3    54   15.7   0.0     S  0.00   4.8     S   25.7   25.9   25.9   32.2  1025.1  0.00   0.0   807    34.71    902     5.0  1.07   5.4   0.000   0.153   27.0    45    0.00   701    1    100.0   30 
17/02/19 12:00p   27.7   27.7   25.7    46   15.0   0.0     S  0.00   6.4     S   27.7   27.7   27.7   34.1  1024.9  0.00   0.0   844    36.30   1067     6.0  1.29   7.2   0.000   0.196   26.9    44    0.51   701    1    100.0   30 
17/02/19 12:30p   28.7   28.7   27.8    36   12.2   1.6     S  0.80  12.9   WSW   28.7   28.3   28.3   34.7  1024.5  0.00   0.0   822    35.35   1060     6.3  1.35   6.8   0.000   0.216   26.9    45    0.00   700    1    100.0   30 
17/02/19  1:00p   29.9   29.9   28.7    30   10.4   3.2     S  1.61  19.3   WSW   29.9   28.9   28.9   34.3  1024.4  0.00   0.0   946    40.68   1255     7.0  1.50   8.6   0.000   0.241   26.8    43    0.61   700    1    100.0   30 
17/02/19  1:30p   29.2   29.9   29.2    30    9.8   4.8     S  2.41  17.7   WSW   29.2   28.2   28.2   33.5  1024.3  0.00   0.0   569    24.47    775     5.1  1.09   7.3   0.000   0.226   26.8    42    0.00   702    1    100.0   30 
17/02/19  2:00p   30.1   30.2   29.2    28    9.5   4.8    SW  2.41  16.1   WSW   30.1   28.9   28.9   35.0  1023.9  0.00   0.0   742    31.91   1148     6.6  1.41   8.6   0.000   0.244   26.8    43    0.51   698    1    100.0   30 
17/02/19  2:30p   30.2   30.4   30.1    27    9.1   6.4   SSW  3.22  17.7     S   30.2   28.9   28.9   34.8  1023.8  0.00   0.0   843    36.25   1216     6.6  1.41   8.6   0.000   0.247   26.8    42    0.00   701    1    100.0   30 
17/02/19  3:00p   29.1   30.1   29.1    29    9.3   4.8     S  2.41  17.7   SSE   29.1   28.1   28.1   32.5  1023.5  0.00   0.0   465    20.00   1102     4.8  1.03   8.3   0.000   0.225   27.0    41    0.53   703    1    100.0   30 
17/02/19  3:30p   29.8   30.3   29.2    28    9.4   3.2     S  1.61  14.5   WSW   29.8   28.7   28.7   33.7  1023.0  0.00   0.0   526    22.62   1127     4.5  0.96   7.1   0.000   0.240   27.0    41    0.00   702    1    100.0   30 
17/02/19  4:00p   30.2   30.2   29.6    29   10.2   4.8   SSW  2.41  14.5   SSW   30.2   29.1   29.1   34.9  1022.5  0.00   0.0   621    26.71    824     4.2  0.90   5.8   0.000   0.247   27.2    40    0.46   701    1    100.0   30 
17/02/19  4:30p   31.3   31.3   30.2    28   10.6   4.8   ENE  2.41  12.9    SE   31.3   29.8   29.8   36.7  1021.9  0.00   0.0   759    32.64    837     4.5  0.96   4.8   0.000   0.270   27.3    39    0.00   680    1     99.4   30 
17/02/19  5:00p   30.3   31.4   30.3    29   10.3   3.2     S  1.61  11.3     S   30.3   29.3   29.3   33.7  1021.7  0.00   0.0   365    15.70    796     2.5  0.54   4.1   0.000   0.250   27.4    40    0.43   701    1    100.0   30 
17/02/19  5:30p   29.7   30.3   29.7    30   10.3   0.0     S  0.00   4.8     S   29.7   28.8   28.8   31.4  1021.4  0.00   0.0   205     8.82    253     1.5  0.32   1.9   0.000   0.237   27.4    40    0.00   699    1    100.0   30 
17/02/19  6:00p   29.7   29.8   29.7    30   10.3   0.0     S  0.00   1.6     S   29.7   28.8   28.8   30.9  1021.2  0.00   0.0   156     6.71    204     0.9  0.19   1.2   0.000   0.237   27.6    40    0.13   695    1    100.0   30 
17/02/19  6:30p   29.4   29.7   29.4    31   10.5   0.0   ---  0.00   0.0   ---   29.4   28.5   28.5   29.2  1021.0  0.00   0.0    73     3.14     95     0.0  0.00   0.5   0.000   0.230   27.4    40    0.00   701    1    100.0   30 
17/02/19  7:00p   28.8   29.4   28.8    34   11.4   0.0   ---  0.00   0.0   ---   28.8   28.3   28.3   28.6  1020.7  0.00   0.0    52     2.24     77     0.0  0.00   0.0   0.000   0.219   27.4    40    0.05   701    1    100.0   30 
17/02/19  7:30p   28.1   28.8   28.1    37   12.0   0.0   ---  0.00   0.0   ---   28.1   27.6   27.6   26.7  1020.8  0.00   0.0    40     1.72     58     0.0  0.00   0.0   0.000   0.204   27.4    40    0.00   701    1    100.0   30 
17/02/19  8:00p   27.3   28.1   27.3    39   12.2   0.0   ---  0.00   0.0   ---   27.3   26.8   26.8   25.7  1020.7  0.00   0.0    28     1.20     37     0.0  0.00   0.0   0.000   0.187   27.3    40    0.05   699    1    100.0   30 
17/02/19  8:30p   26.0   27.3   26.0    43   12.5   0.0   ---  0.00   0.0   ---   26.0   25.7   25.7   24.4  1020.5  0.00   0.0     6     0.26     18     0.0  0.00   0.0   0.000   0.160   27.2    40    0.00   703    1    100.0   30 
17/02/19  9:00p   24.4   25.9   24.4    49   13.0   0.0   ---  0.00   0.0   ---   24.4   24.4   24.4   23.0  1020.7  0.00   0.0     0     0.00      0     0.0  0.00   0.0   0.000   0.127   27.1    40    0.03   698    1    100.0   30 
17/02/19  9:30p   23.1   24.4   23.1    51   12.4   0.0   ---  0.00   0.0   ---   23.1   22.9   22.9   21.6  1020.7  0.00   0.0     0     0.00      0     0.0  0.00   0.0   0.000   0.100   26.9    40    0.00   700    1    100.0   30 
17/02/19 10:00p   21.9   23.1   21.9    57   13.0   0.0   ---  0.00   0.0   ---   21.9   21.6   21.6   20.2  1020.6  0.00   0.0     0     0.00      0     0.0  0.00   0.0   0.000   0.074   26.8    41    0.05   703    1    100.0   30 
17/02/19 10:30p   20.7   21.8   20.7    61   12.9   0.0   ---  0.00   0.0   ---   20.7   20.4   20.4   19.0  1020.7  0.00   0.0     0     0.00      0     0.0  0.00   0.0   0.000   0.050   26.7    41    0.00   701    1    100.0   30 
17/02/19 11:00p   19.8   20.7   19.8    64   12.8   0.0   ---  0.00   0.0   ---   19.8   19.8   19.8   18.4  1020.4  0.00   0.0     0     0.00      0     0.0  0.00   0.0   0.000   0.030   26.7    41    0.03   701    1    100.0   30 
17/02/19 11:30p   18.9   19.8   18.9    68   12.9   0.0   ---  0.00   0.0   ---   18.9   18.9   18.9   17.5  1020.2  0.00   0.0     0     0.00      0     0.0  0.00   0.0   0.000   0.012   26.8    41    0.00   698    1    100.0   30 
18/02/19 12:00a   18.3   18.9   18.3    70   12.7   0.0   ---  0.00   0.0   ---   18.3   18.3   18.3   16.9  1020.2  0.00   0.0     0     0.00      0     0.0  0.00   0.0   0.001   0.000   26.8    41    0.03   702    1    100.0   30 
18/02/19 12:30a   18.2   18.3   18.1    71   12.9   0.0   ---  0.00   0.0   ---   18.2   18.2   18.2   16.8  1020.0  0.00   0.0     0     0.00      0     0.0  0.00   0.0   0.002   0.000   26.9    41    0.00   696    1    100.0   30 
18/02/19  1:00a   19.0   19.0   18.2    64   12.0   0.0   ---  0.00   0.0   ---   19.0   18.8   18.8   17.4  1019.6  0.00   0.0     0     0.00      0     0.0  0.00   0.0   0.000   0.014   26.8    41    0.03   702    1    100.0   30 
18/02/19  1:30a   19.2   19.2   18.6    64   12.2   0.0    SW  0.00  20.9   WSW   19.2   19.1   19.1   17.7  1019.9  0.00   0.0     0     0.00      0     0.0  0.00   0.0   0.000   0.017   26.8    41    0.00   699    1    100.0   30 
18/02/19  2:00a   21.2   21.2   19.2    72   15.9   0.0    SW  0.00   9.7    SW   21.2   21.3   21.3   20.1  1020.3  0.00   0.0     0     0.00      0     0.0  0.00   0.0   0.000   0.059   26.8    41    0.03   702    1    100.0   30 
18/02/19  2:30a   20.9   21.2   20.9    77   16.8   0.0   WSW  0.00  14.5   WSW   20.9   21.4   21.4   20.3  1020.0  0.00   0.0     0     0.00      0     0.0  0.00   0.0   0.000   0.054   26.9    41    0.00   699    1    100.0   30 
18/02/19  3:00a   20.4   20.9   20.4    79   16.7   0.0   ---  0.00   0.0   ---   20.4   21.2   21.2   20.1  1019.6  0.00   0.0     0     0.00      0     0.0  0.00   0.0   0.000   0.044   26.8    42    0.03   701    1    100.0   30 
18/02/19  3:30a   20.1   20.4   20.1    80   16.6   0.0   ---  0.00   0.0   ---   20.1   20.8   20.8   19.6  1019.2  0.00   0.0     0     0.00      0     0.0  0.00   0.0   0.000   0.037   26.8    42    0.00   702    1    100.0   30 
18/02/19  4:00a   20.0   20.1   20.0    79   16.2   0.0   ---  0.00   0.0   ---   20.0   20.7   20.7   19.4  1018.5  0.00   0.0     0     0.00      0     0.0  0.00   0.0   0.000   0.035   26.8    42    0.03   701    1    100.0   30 
18/02/19  4:30a   19.8   20.0   19.8    76   15.5   0.0   WSW  0.00   6.4   WSW   19.8   20.3   20.3   19.1  1018.1  0.00   0.0     0     0.00      0     0.0  0.00   0.0   0.000   0.031   26.8    41    0.00   699    1    100.0   30 
18/02/19  5:00a   19.4   19.8   19.4    76   15.0   0.0   ---  0.00   0.0   ---   19.4   19.8   19.8   18.6  1017.6  0.00   0.0     0     0.00      0     0.0  0.00   0.0   0.000   0.022   26.8    42    0.03   699    1    100.0   30 
18/02/19  5:30a   18.7   19.3   18.7    78   14.8   0.0   ---  0.00   0.0   ---   18.7   19.1   19.1   17.8  1017.1  0.00   0.0     0     0.00      0     0.0  0.00   0.0   0.000   0.007   26.8    42    0.00   701    1    100.0   30 
18/02/19  6:00a   18.6   18.7   18.5    79   14.8   0.0   ---  0.00   0.0   ---   18.6   18.9   18.9   17.7  1016.6  0.00   0.0     0     0.00      0     0.0  0.00   0.0   0.000   0.005   26.8    42    0.03   703    1    100.0   30 
18/02/19  6:30a   18.4   18.6   18.4    79   14.7   0.0   ---  0.00   0.0   ---   18.4   18.7   18.7   17.4  1016.8  0.00   0.0     0     0.00      0     0.0  0.00   0.0   0.000   0.001   26.8    43    0.00   677    1     99.0   30 
18/02/19  7:00a   18.4   18.4   18.3    77   14.3   0.0   ---  0.00   0.0   ---   18.4   18.7   18.7   17.6  1017.0  0.00   0.0     0     0.00      0     0.0  0.00   0.0   0.000   0.001   26.8    43    0.03   703    1    100.0   30 
18/02/19  7:30a   18.8   18.8   18.4    77   14.7   0.0   ---  0.00   0.0   ---   18.8   19.2   19.2   18.2  1017.5  0.00   0.0     3     0.13      9     0.0  0.00   0.0   0.000   0.010   26.8    42    0.00   700    1    100.0   30 
18/02/19  8:00a   20.9   20.9   18.8    63   13.6   0.0   WSW  0.00  16.1   WSW   20.9   20.7   20.7   20.0  1018.6  0.00   0.0    15     0.65     21     0.0  0.00   0.0   0.000   0.054   26.8    43    0.00   702    1    100.0   30 
18/02/19  8:30a   21.5   21.5   20.9    61   13.7   1.6   SSW  0.80  14.5   SSE   21.5   21.2   21.2   21.4  1018.8  0.00   0.0    61     2.62    118     0.0  0.00   0.0   0.000   0.066   26.8    43    0.00   702    1    100.0   30 
18/02/19  9:00a   21.5   21.6   21.5    62   13.9   1.6     S  0.80  17.7   SSE   21.5   21.3   21.3   22.7  1019.6  0.00   0.0   139     5.98    167     0.2  0.04   0.7   0.000   0.066   26.9    43    0.08   698    1    100.0   30 
18/02/19  9:30a   21.3   21.6   21.3    64   14.2   0.0     W  0.00  11.3     W   21.3   21.1   21.1   22.9  1019.7  0.00   0.0   173     7.44    190     0.8  0.17   0.9   0.000   0.061   27.0    46    0.00   701    1    100.0   30 
18/02/19 10:00a   20.9   21.3   20.9    69   15.0   1.6   WSW  0.80  14.5    SW   20.9   20.9   20.9   23.1  1020.4  0.00   0.0   213     9.16    308     1.1  0.24   1.6   0.000   0.053   27.2    45    0.13   697    1    100.0   30 
18/02/19 10:30a   20.7   21.0   20.7    69   14.8   1.6    SW  0.80  20.9     W   20.7   20.8   20.8   22.7  1021.8  0.00   0.0   208     8.95    366     1.1  0.24   1.7   0.000   0.049   27.4    46    0.00   700    1    100.0   30 
18/02/19 11:00a   20.7   20.7   20.7    68   14.6   0.0   SSE  0.00   8.0   SSE   20.7   20.8   20.8   22.2  1021.4  0.00   0.0   174     7.48    221     1.2  0.26   1.5   0.000   0.050   27.8    46    0.13   699    1    100.0   30 
18/02/19 11:30a   20.6   20.8   20.6    70   14.9   0.0   SSE  0.00   1.6   SSE   20.6   20.8   20.8   21.3  1021.2  0.00   0.0   106     4.56    144     0.7  0.15   1.0   0.000   0.047   27.9    46    0.00   700    1    100.0   30 
18/02/19 12:00p   20.5   20.6   20.4    77   16.3   0.0   ---  0.00   0.0   ---   20.5   21.2   21.2   22.3  1020.7  0.00   0.0   158     6.79    285     1.1  0.24   2.3   0.000   0.045   28.1    47    0.08   699    1    100.0   30 
18/02/19 12:30p   21.0   21.0   20.4    74   16.2   0.0   SSE  0.00   6.4   SSE   21.0   21.3   21.3   24.7  1019.6  0.00   0.0   325    13.98    422     2.7  0.58   3.5   0.000   0.056   28.3    47    0.00   700    1    100.0   30 
18/02/19  1:00p   21.6   21.6   21.0    71   16.1   0.0   SSE  0.00   9.7   SSE   21.6   21.9   21.9   25.7  1019.1  0.00   0.0   368    15.83    550     3.1  0.66   4.2   0.000   0.068   28.5    46    0.20   702    1    100.0   30 
18/02/19  1:30p   22.4   22.4   21.6    69   16.4   0.0   ---  0.00   0.0   ---   22.4   22.8   22.8   26.3  1018.9  0.00   0.0   341    14.66    374     2.9  0.62   3.3   0.000   0.084   28.8    46    0.00   701    1    100.0   30 
18/02/19  2:00p   22.7   22.7   22.4    65   15.7   0.0   SSE  0.00   1.6   SSE   22.7   23.0   23.0   27.2  1018.4  0.00   0.0   412    17.72   1011     4.1  0.88   7.3   0.000   0.090   28.9    46    0.23   702    1    100.0   30 
18/02/19  2:30p   24.6   24.7   22.7    59   16.1   1.6   SSE  0.80   8.0   SSE   24.6   24.9   24.9   31.2  1017.6  0.00   0.0   713    30.66   1150     5.8  1.24   8.1   0.000   0.131   29.2    46    0.00   700    1    100.0   30 
18/02/19  3:00p   25.4   25.4   24.6    55   15.7   3.2   SSE  1.61  11.3     S   25.4   25.7   25.7   31.9  1016.9  0.00   0.0   705    30.32   1106     5.3  1.14   7.5   0.000   0.148   29.3    45    0.46   702    1    100.0   30 
18/02/19  3:30p   26.2   26.6   25.4    53   15.8   4.8   SSW  2.41  24.1   SSE   26.2   26.4   26.4   32.7  1016.8  0.00   0.0   851    36.60    951     5.7  1.22   6.5   0.000   0.163   28.7    43    0.00   699    1    100.0   30 
18/02/19  4:00p   25.9   26.2   25.9    55   16.2   6.4     S  3.22  25.7   SSE   25.9   26.2   26.2   32.5  1017.1  0.00   0.0   762    32.77    798     4.8  1.03   5.3   0.000   0.157   28.8    42    0.56   700    1    100.0   30 
18/02/19  4:30p   25.3   25.9   25.3    57   16.1   6.4     S  3.22  19.3     S   25.3   25.6   25.6   32.0  1017.4  0.00   0.0   685    29.46    721     3.8  0.81   4.3   0.000   0.145   28.7    42    0.00   702    1    100.0   30 
18/02/19  5:00p   24.2   25.3   24.0    58   15.4   8.0   SSW  4.02  25.7   SSE   24.2   24.5   24.5   30.9  1018.2  0.00   0.0   599    25.76    645     3.0  0.64   3.4   0.000   0.122   28.5    41    0.46   701    1    100.0   30 
18/02/19  5:30p   24.4   24.5   24.1    57   15.3   4.8     S  2.41  20.9   WSW   24.4   24.7   24.7   31.1  1018.5  0.00   0.0   510    21.93    552     2.2  0.47   2.5   0.000   0.126   28.4    40    0.00   671    1     98.1   30 
18/02/19  6:00p   22.4   24.4   22.4    61   14.5   6.4     S  3.22  20.9   SSE   22.4   22.6   22.6   28.4  1019.2  0.00   0.0   405    17.42    466     1.4  0.30   1.8   0.000   0.086   27.9    40    0.30   700    1    100.0   30 
18/02/19  6:30p   21.4   22.6   21.4    64   14.3   6.4     S  3.22  19.3   SSE   21.4   21.2   21.2   26.6  1019.8  0.00   0.0   317    13.63    396     0.9  0.19   1.1   0.000   0.064   27.8    42    0.00   703    1    100.0   30 
18/02/19  7:00p   20.2   21.4   20.1    66   13.6   3.2     S  1.61  22.5   SSE   20.2   20.3   20.3   21.9  1020.5  0.00   0.0   115     4.95    172     0.1  0.02   0.5   0.000   0.038   27.8    43    0.15   701    1    100.0   30 
18/02/19  7:30p   19.5   20.2   19.5    67   13.2   3.2     S  1.61  19.3   WSW   19.5   19.6   19.6   19.2  1021.0  0.00   0.0    98     4.21    146     0.0  0.00   0.0   0.000   0.024   27.8    43    0.00   701    1    100.0   30 
18/02/19  8:00p   18.5   19.5   18.5    69   12.7   1.6     S  0.80  17.7   SSE   18.5   18.5   18.5   17.3  1021.7  0.00   0.0    30     1.29     49     0.0  0.00   0.0   0.000   0.003   27.8    42    0.05   700    1    100.0   30 
18/02/19  8:30p   18.0   18.5   18.0    70   12.4   1.6     S  0.80  17.7   SSW   18.0   17.9   17.9   16.4  1022.2  0.00   0.0     3     0.13     14     0.0  0.00   0.0   0.007   0.000   27.8    43    0.00   701    1    100.0   30 
18/02/19  9:00p   17.6   18.0   17.6    72   12.4   1.6     S  0.80  19.3     S   17.6   17.5   17.5   15.9  1022.8  0.00   0.0     0     0.00      0     0.0  0.00   0.0   0.016   0.000   27.6    43    0.00   701    1    100.0   30 
18/02/19  9:30p   17.3   17.6   17.2    72   12.2   0.0   ---  0.00   0.0   ---   17.3   17.2   17.2   15.6  1023.2  0.00   0.0     0     0.00      0     0.0  0.00   0.0   0.022   0.000   27.1    45    0.00   700    1    100.0   30 
18/02/19 10:00p   17.7   17.7   17.3    71   12.3   0.0   SSE  0.00   8.0   SSE   17.7   17.6   17.6   15.9  1023.3  0.00   0.0     0     0.00      0     0.0  0.00   0.0   0.014   0.000   27.0    47    0.03   702    1    100.0   30 
18/02/19 10:30p   17.8   17.8   17.7    69   12.0   0.0     S  0.00   9.7     S   17.8   17.6   17.6   16.0  1023.4  0.00   0.0     0     0.00      0     0.0  0.00   0.0   0.012   0.000   27.0    49    0.00   701    1    100.0   30 
18/02/19 11:00p   17.9   17.9   17.8    65   11.3   0.0    SW  0.00   8.0   SSW   17.9   17.7   17.7   16.1  1023.4  0.00   0.0     0     0.00      0     0.0  0.00   0.0   0.008   0.000   27.1    49    0.03   701    1    100.0   30 
18/02/19 11:30p   17.7   17.9   17.7    61   10.1   0.0    SW  0.00  11.3   SSW   17.7   17.3   17.3   15.6  1023.4  0.00   0.0     0     0.00      0     0.0  0.00   0.0   0.013   0.000   27.0    47    0.00   674    1     98.5   30 
19/02/19 12:00a   17.3   17.7   17.3    61    9.7   0.0   WSW  0.00  12.9   WSW   17.3   16.8   16.8   15.1  1023.3  0.00   0.0     0     0.00      0     0.0  0.00   0.0   0.021   0.000   26.9    48    0.03   701    1    100.0   30 
19/02/19 12:30a   16.7   17.3   16.7    60    8.9   0.0   WSW  0.00  11.3   WSW   16.7   16.1   16.1   14.3  1023.5  0.00   0.0     0     0.00      0     0.0  0.00   0.0   0.034   0.000   26.9    48    0.00   701    1    100.0   30 
19/02/19  1:00a   16.1   16.7   16.1    60    8.3   0.0   WSW  0.00   8.0   WSW   16.1   15.4   15.4   13.7  1023.7  0.00   0.0     0     0.00      0     0.0  0.00   0.0   0.046   0.000   26.9    46    0.03   699    1    100.0   30 
19/02/19  1:30a   15.6   16.2   15.6    63    8.5   0.0   WSW  0.00   4.8   WSW   15.6   14.9   14.9   13.2  1023.6  0.00   0.0     0     0.00      0     0.0  0.00   0.0   0.058   0.000   26.8    47    0.00   679    1     99.3   30 
19/02/19  2:00a   15.0   15.6   15.0    66    8.7   0.0   ---  0.00   0.0   ---   15.0   14.5   14.5   12.7  1023.5  0.00   0.0     0     0.00      0     0.0  0.00   0.0   0.069   0.000   26.9    46    0.03   701    1    100.0   30 
19/02/19  2:30a   14.6   15.0   14.6    69    8.9   0.0   ---  0.00   0.0   ---   14.6   14.1   14.1   12.3  1023.4  0.00   0.0     0     0.00      0     0.0  0.00   0.0   0.079   0.000   26.8    45    0.00   675    1     98.7   30 
19/02/19  3:00a   14.1   14.6   14.1    71    8.9   0.0   ---  0.00   0.0   ---   14.1   13.7   13.7   11.9  1023.3  0.00   0.0     0     0.00      0     0.0  0.00   0.0   0.089   0.000   26.7    45    0.03   700    1    100.0   30 
19/02/19  3:30a   13.9   14.1   13.9    72    8.9   0.0   ---  0.00   0.0   ---   13.9   13.5   13.5   11.7  1023.4  0.00   0.0     0     0.00      0     0.0  0.00   0.0   0.093   0.000   26.8    44    0.00   701    1    100.0   30 
19/02/19  4:00a   13.7   13.9   13.7    73    9.0   0.0   ---  0.00   0.0   ---   13.7   13.4   13.4   11.6  1023.6  0.00   0.0     0     0.00      0     0.0  0.00   0.0   0.096   0.000   26.9    43    0.03   700    1    100.0   30 
19/02/19  4:30a   13.7   13.8   13.7    73    9.0   0.0   ---  0.00   0.0   ---   13.7   13.4   13.4   11.6  1023.5  0.00   0.0     0     0.00      0     0.0  0.00   0.0   0.096   0.000   26.8    42    0.00   701    1    100.0   30 
19/02/19  5:00a   13.4   13.7   13.4    74    8.9   0.0   ---  0.00   0.0   ---   13.4   13.1   13.1   11.3  1023.5  0.00   0.0     0     0.00      0     0.0  0.00   0.0   0.102   0.000   26.7    42    0.03   700    1    100.0   30 
19/02/19  5:30a   13.6   13.6   13.3    77    9.6   0.0   ---  0.00   0.0   ---   13.6   13.3   13.3   11.6  1023.7  0.00   0.0     0     0.00      0     0.0  0.00   0.0   0.100   0.000   26.8    42    0.00   699    1    100.0   30 
19/02/19  6:00a   14.1   14.1   13.6    75    9.7   0.0   WSW  0.00  14.5   WSW   14.1   13.8   13.8   12.1  1023.8  0.00   0.0     0     0.00      0     0.0  0.00   0.0   0.088   0.000   26.8    41    0.03   701    1    100.0   30 
19/02/19  6:30a   13.7   14.1   13.7    76    9.5   0.0   ---  0.00   0.0   ---   13.7   13.4   13.4   11.7  1023.9  0.00   0.0     0     0.00      0     0.0  0.00   0.0   0.097   0.000   26.8    41    0.00   660    1     96.5   30 
19/02/19  7:00a   13.2   13.7   13.2    77    9.2   0.0   ---  0.00   0.0   ---   13.2   12.9   12.9   11.7  1024.2  0.00   0.0     2     0.09      9     0.0  0.00   0.0   0.108   0.000   26.8    41    0.00   701    1    100.0   30 
19/02/19  7:30a   12.6   13.2   12.6    79    9.0   0.0   ---  0.00   0.0   ---   12.6   12.4   12.4   11.6  1024.5  0.00   0.0    17     0.73     26     0.0  0.00   0.0   0.120   0.000   26.8    40    0.00   701    1    100.0   30 
19/02/19  8:00a   13.1   13.1   12.6    80    9.7   0.0   ---  0.00   0.0   ---   13.1   12.9   12.9   13.1  1024.7  0.00   0.0    56     2.41     88     0.0  0.00   0.0   0.109   0.000   26.8    40    0.03   698    1    100.0   30 
19/02/19  8:30a   14.7   14.7   13.1    76   10.5   0.0   ---  0.00   0.0   ---   14.7   14.4   14.4   16.7  1024.9  0.00   0.0   179     7.70    308     0.0  0.00   0.5   0.076   0.000   26.8    40    0.00   699    1    100.0   30 
19/02/19  9:00a   16.4   16.4   14.7    66   10.0   1.6    SW  0.80  14.5    SW   16.4   16.0   16.0   20.1  1025.0  0.00   0.0   323    13.89    388     0.7  0.15   1.0   0.041   0.000   26.8    40    0.13   702    1    100.0   30 
19/02/19  9:30a   17.4   17.4   16.4    62   10.0   1.6   WSW  0.80  17.7   WSW   17.4   16.9   16.9   21.9  1025.3  0.00   0.0   445    19.14    504     1.3  0.28   1.6   0.020   0.000   26.9    40    0.00   681    1     99.6   30 
19/02/19 10:00a   17.3   17.8   17.3    64   10.4   1.6     W  0.80  14.5   WSW   17.3   16.9   16.9   19.9  1025.5  0.00   0.0   289    12.43    721     1.2  0.26   1.8   0.022   0.000   26.9    39    0.20   698    1    100.0   30 
19/02/19 10:30a   17.1   17.3   17.0    65   10.5   3.2   SSE  1.61  19.3     S   17.1   16.8   16.8   19.7  1025.8  0.00   0.0   296    12.73    396     1.6  0.34   2.0   0.025   0.000   27.0    40    0.00   702    1    100.0   30 
19/02/19 11:00a   17.2   17.3   17.1    67   11.0   1.6     S  0.80  14.5     S   17.2   16.9   16.9   20.2  1026.1  0.00   0.0   337    14.49    406     2.0  0.43   2.7   0.024   0.000   27.0    39    0.18   703    1    100.0   30 
19/02/19 11:30a   18.3   18.3   17.2    60   10.4   0.0     S  0.00   9.7     S   18.3   17.8   17.8   22.9  1026.0  0.00   0.0   548    23.57    722     3.7  0.79   4.7   0.001   0.000   27.0    39    0.00   701    1    100.0   30 
19/02/19 12:00p   19.5   19.5   18.3    54    9.9   3.2     S  1.61  17.7     S   19.5   18.9   18.9   25.0  1026.1  0.00   0.0   734    31.57   1016     5.0  1.07   6.5   0.000   0.024   27.1    39    0.38   701    1    100.0   30 
19/02/19 12:30p   20.2   20.2   19.6    48    8.8   3.2     S  1.61  20.9   SSE   20.2   19.3   19.3   24.4  1025.9  0.00   0.0   949    40.81    998     6.6  1.41   7.0   0.000   0.038   27.0    39    0.00   700    1    100.0   30 
19/02/19  1:00p   20.1   20.6   20.1    46    8.1   3.2    SW  1.61  20.9    SW   20.1   19.1   19.1   25.3  1025.6  0.00   0.0   823    35.39   1296     5.9  1.26   8.1   0.000   0.036   27.1    38    0.53   703    1    100.0   30 
19/02/19  1:30p   20.6   20.6   19.9    47    8.8   3.2     W  1.61  17.7   WSW   20.6   19.6   19.6   25.0  1025.5  0.00   0.0   595    25.59   1121     5.8  1.24   8.9   0.000   0.046   27.2    37    0.00   699    1    100.0   30 
19/02/19  2:00p   21.1   21.2   20.5    45    8.7   1.6     W  0.80  17.7   WSW   21.1   19.8   19.8   25.9  1025.3  0.00   0.0   854    36.73   1136     6.4  1.37   8.1   0.000   0.057   27.2    38    0.46   701    1    100.0   30 
19/02/19  2:30p   21.4   21.4   20.2    47    9.6   1.6   WSW  0.80  20.9   WSW   21.4   20.4   20.4   26.4  1025.2  0.00   0.0   723    31.09   1216     5.7  1.22   8.1   0.000   0.064   27.3    36    0.00   702    1    100.0   30 
19/02/19  3:00p   20.9   21.8   20.9    48    9.5   3.2   WSW  1.61  20.9   WSW   20.9   19.9   19.9   24.9  1025.1  0.00   0.0   523    22.49   1299     4.9  1.05   7.9   0.000   0.054   27.3    37    0.41   702    1    100.0   30 
19/02/19  3:30p   21.1   21.5   20.9    50   10.2   1.6     S  0.80  17.7   SSE   21.1   20.1   20.1   25.4  1025.2  0.00   0.0   549    23.61   1127     4.7  1.01   7.2   0.000   0.057   27.6    38    0.00   701    1    100.0   30 
19/02/19  4:00p   20.7   21.1   20.7    53   10.7   3.2     S  1.61  19.3     S   20.7   20.0   20.0   24.5  1025.1  0.00   0.0   427    18.36    666     3.4  0.73   5.0   0.000   0.049   27.8    38    0.36   701    1    100.0   30 
19/02/19  4:30p   21.2   21.2   20.4    53   11.2   3.2     S  1.61  25.7     S   21.2   20.4   20.4   26.1  1025.0  0.00   0.0   548    23.57    914     3.4  0.73   4.4   0.000   0.059   27.8    37    0.00   701    1    100.0   30 
19/02/19  5:00p   20.2   21.2   20.2    53   10.3   4.8     S  2.41  19.3   WSW   20.2   19.6   19.6   25.0  1025.2  0.00   0.0   539    23.18    821     2.7  0.58   3.8   0.000   0.039   27.9    37    0.36   700    1    100.0   30 
19/02/19  5:30p   20.2   20.3   20.0    54   10.6   1.6     S  0.80  19.3   SSE   20.2   19.7   19.7   24.8  1025.3  0.00   0.0   392    16.86    729     1.8  0.39   2.3   0.000   0.039   27.8    37    0.00   702    1    100.0   30 
19/02/19  6:00p   20.3   20.8   20.2    55   10.9   3.2     S  1.61  17.7     S   20.3   19.8   19.8   26.9  1025.6  0.00   0.0   481    20.69    642     1.5  0.32   2.0   0.000   0.041   27.6    36    0.28   702    1    100.0   30 
19/02/19  6:30p   20.1   20.3   19.8    54   10.5   3.2     S  1.61  20.9     W   20.1   19.6   19.6   24.4  1025.7  0.00   0.0   305    13.12    424     0.8  0.17   1.1   0.000   0.036   27.1    36    0.00   700    1    100.0   30 
19/02/19  7:00p   19.7   20.1   19.7    54   10.1   3.2     S  1.61  11.3     S   19.7   19.2   19.2   23.0  1025.8  0.00   0.0   224     9.63    287     0.3  0.06   0.6   0.000   0.029   27.0    37    0.18   701    1    100.0   30 
19/02/19  7:30p   18.6   19.7   18.6    58   10.2   1.6     S  0.80  12.9     S   18.6   18.1   18.1   17.3  1026.4  0.00   0.0    82     3.53    156     0.0  0.00   0.0   0.000   0.006   26.9    37    0.00   701    1    100.0   30 
19/02/19  8:00p   17.6   18.6   17.6    60    9.7   1.6   SSW  0.80  16.1   WSW   17.6   17.1   17.1   15.5  1026.9  0.00   0.0    21     0.90     33     0.0  0.00   0.0   0.015   0.000   26.9    38    0.05   700    1    100.0   30 
19/02/19  8:30p   17.0   17.6   17.0    61    9.4   0.0   SSW  0.00   3.2   SSW   17.0   16.4   16.4   14.7  1027.3  0.00   0.0     2     0.09      9     0.0  0.00   0.0   0.028   0.000   26.8    37    0.00   702    1    100.0   30 
19/02/19  9:00p   16.9   17.0   16.9    62    9.6   0.0   SSW  0.00   9.7   SSW   16.9   16.3   16.3   14.6  1027.3  0.00   0.0     0     0.00      0     0.0  0.00   0.0   0.030   0.000   26.9    37    0.00   700    1    100.0   30 
19/02/19  9:30p   16.7   16.9   16.7    63    9.6   0.0     S  0.00  12.9     S   16.7   16.2   16.2   14.4  1027.6  0.00   0.0     0     0.00      0     0.0  0.00   0.0   0.035   0.000   26.9    37    0.00   701    1    100.0   30 
19/02/19 10:00p   15.9   16.7   15.9    64    9.1   0.0   ---  0.00   0.0   ---   15.9   15.4   15.4   13.6  1027.8  0.00   0.0     0     0.00      0     0.0  0.00   0.0   0.050   0.000   26.8    37    0.03   700    1    100.0   30 
19/02/19 10:30p   15.3   15.9   15.3    66    9.0   0.0   ---  0.00   0.0   ---   15.3   14.8   14.8   13.0  1027.9  0.00   0.0     0     0.00      0     0.0  0.00   0.0   0.063   0.000   26.8    37    0.00   700    1    100.0   30 
19/02/19 11:00p   14.6   15.3   14.6    69    8.9   0.0   ---  0.00   0.0   ---   14.6   14.1   14.1   12.3  1028.2  0.00   0.0     0     0.00      0     0.0  0.00   0.0   0.079   0.000   26.8    37    0.03   700    1    100.0   30 
19/02/19 11:30p   13.8   14.6   13.8    73    9.1   0.0   ---  0.00   0.0   ---   13.8   13.5   13.5   11.7  1028.1  0.00   0.0     0     0.00      0     0.0  0.00   0.0   0.094   0.000   26.9    37    0.00   654    1     95.6   30 
20/02/19 12:00a   13.3   13.8   13.3    75    9.0   0.0   ---  0.00   0.0   ---   13.3   13.0   13.0   11.2  1028.1  0.00   0.0     0     0.00      0     0.0  0.00   0.0   0.104   0.000   26.8    37    0.03   697    1    100.0   30 
20/02/19 12:30a   13.0   13.3   13.0    77    9.1   0.0   ---  0.00   0.0   ---   13.0   12.8   12.8   10.9  1028.1  0.00   0.0     0     0.00      0     0.0  0.00   0.0   0.111   0.000   26.8    37    0.00   700    1    100.0   30 
20/02/19  1:00a   12.9   13.0   12.8    79    9.3   0.0   ---  0.00   0.0   ---   12.9   12.7   12.7   10.9  1027.9  0.00   0.0     0     0.00      0     0.0  0.00   0.0   0.113   0.000   26.9    37    0.03   700    1    100.0   30 
20/02/19  1:30a   12.9   13.1   12.9    78    9.2   0.0   ---  0.00   0.0   ---   12.9   12.7   12.7   10.9  1027.6  0.00   0.0     0     0.00      0     0.0  0.00   0.0   0.112   0.000   26.8    37    0.00   699    1    100.0   30 
20/02/19  2:00a   12.4   13.0   12.4    81    9.2   0.0   ---  0.00   0.0   ---   12.4   12.2   12.2   10.4  1027.5  0.00   0.0     0     0.00      0     0.0  0.00   0.0   0.124   0.000   26.7    37    0.03   702    1    100.0   30 
20/02/19  2:30a   12.3   12.4   12.3    83    9.5   0.0   ---  0.00   0.0   ---   12.3   12.2   12.2   10.4  1027.4  0.00   0.0     0     0.00      0     0.0  0.00   0.0   0.126   0.000   26.7    37    0.00   700    1    100.0   30 
20/02/19  3:00a   11.9   12.3   11.9    84    9.3   0.0   ---  0.00   0.0   ---   11.9   11.9   11.9   10.1  1027.3  0.00   0.0     0     0.00      0     0.0  0.00   0.0   0.133   0.000   26.7    37    0.00   703    1    100.0   30 
20/02/19  3:30a   11.8   12.0   11.8    85    9.3   0.0   ---  0.00   0.0   ---   11.8   11.7   11.7    9.9  1027.3  0.00   0.0     0     0.00      0     0.0  0.00   0.0   0.137   0.000   26.7    37    0.00   698    1    100.0   30 
20/02/19  4:00a   11.3   11.8   11.3    85    8.9   0.0   ---  0.00   0.0   ---   11.3   11.3   11.3    9.5  1027.3  0.00   0.0     0     0.00      0     0.0  0.00   0.0   0.146   0.000   26.7    37    0.00   699    1    100.0   30 
20/02/19  4:30a   11.0   11.3   10.9    86    8.7   0.0   ---  0.00   0.0   ---   11.0   11.0   11.0    9.2  1027.3  0.00   0.0     0     0.00      0     0.0  0.00   0.0   0.153   0.000   26.9    37    0.00   698    1    100.0   30 
20/02/19  5:00a   10.3   10.9   10.3    87    8.2   0.0   ---  0.00   0.0   ---   10.3   10.3   10.3    8.4  1027.2  0.00   0.0     0     0.00      0     0.0  0.00   0.0   0.168   0.000   26.8    36    0.00   701    1    100.0   30 
20/02/19  5:30a   10.1   10.3   10.0    88    8.2   0.0   ---  0.00   0.0   ---   10.1   10.2   10.2    8.3  1027.5  0.00   0.0     0     0.00      0     0.0  0.00   0.0   0.172   0.000   26.9    36    0.00   701    1    100.0   30 
20/02/19  6:00a    9.8   10.1    9.8    88    7.9   0.0   ---  0.00   0.0   ---    9.8    9.9    9.9    8.0  1027.7  0.00   0.0     0     0.00      0     0.0  0.00   0.0   0.178   0.000   27.0    36    0.00   701    1    100.0   30 
20/02/19  6:30a    9.7    9.8    9.7    88    7.8   0.0   ---  0.00   0.0   ---    9.7    9.8    9.8    7.9  1027.8  0.00   0.0     0     0.00      0     0.0  0.00   0.0   0.181   0.000   27.0    36    0.00   700    1    100.0   30 
20/02/19  7:00a    9.7    9.7    9.6    88    7.8   0.0   ---  0.00   0.0   ---    9.7    9.8    9.8    8.6  1027.9  0.00   0.0     2     0.09      9     0.0  0.00   0.0   0.181   0.000   27.0    36    0.00   700    1    100.0   30 
20/02/19  7:30a    9.9    9.9    9.7    87    7.9   0.0     S  0.00  12.9     S    9.9   10.1   10.1    9.5  1028.3  0.00   0.0    26     1.12     51     0.0  0.00   0.0   0.175   0.000   26.7    36    0.00   703    1    100.0   30 
20/02/19  8:00a   10.8   10.8    9.9    85    8.4   0.0     S  0.00  12.9     S   10.8   10.8   10.8   11.4  1028.3  0.00   0.0    79     3.40    134     0.0  0.00   0.0   0.156   0.000   26.9    35    0.03   701    1    100.0   30 
20/02/19  8:30a   12.8   12.8   10.9    81    9.7   0.0   ---  0.00   0.0   ---   12.8   12.7   12.7   15.1  1028.4  0.00   0.0   185     7.96    357     0.0  0.00   0.5   0.115   0.000   26.8    35    0.00   702    1    100.0   30 
20/02/19  9:00a   14.9   14.9   12.8    71    9.7   0.0   ---  0.00   0.0   ---   14.9   14.5   14.5   16.9  1028.6  0.00   0.0   212     9.12    441     0.6  0.13   0.9   0.072   0.000   26.8    36    0.10   700    1    100.0   30 
20/02/19  9:30a   16.0   16.0   14.9    68   10.1   0.0   ---  0.00   0.0   ---   16.0   15.6   15.6   18.2  1028.6  0.00   0.0   239    10.28    422     0.9  0.19   1.1   0.049   0.000   26.8    36    0.00   701    1    100.0   30 
20/02/19 10:00a   17.3   17.3   16.0    61    9.7   0.0     S  0.00   1.6     S   17.3   16.7   16.7   20.0  1028.7  0.00   0.0   312    13.42    367     1.4  0.30   1.8   0.022   0.000   26.8    37    0.15   659    1     96.3   30 
20/02/19 10:30a   17.7   17.7   17.3    59    9.6   0.0   SSW  0.00   8.0   SSW   17.7   17.2   17.2   21.0  1028.9  0.00   0.0   381    16.39    455     2.1  0.45   2.6   0.013   0.000   26.8    37    0.00   698    1    100.0   30 
20/02/19 11:00a   18.2   18.3   17.7    57    9.5   0.0    SW  0.00   9.7    SW   18.2   17.6   17.6   21.6  1029.0  0.00   0.0   410    17.63    510     2.5  0.54   2.9   0.003   0.000   26.9    37    0.23   702    1    100.0   30 
20/02/19 11:30a   17.9   18.2   17.8    59    9.8   0.0    SW  0.00   9.7    SW   17.9   17.3   17.3   19.9  1029.0  0.00   0.0   284    12.21    350     2.0  0.43   2.8   0.009   0.000   27.0    37    0.00   700    1    100.0   30 
20/02/19 12:00p   19.0   19.0   17.9    56   10.0   1.6    SW  0.80  17.7   WSW   19.0   18.4   18.4   23.2  1029.0  0.00   0.0   502    21.59   1002     4.0  0.86   6.9   0.000   0.014   26.9    38    0.23   700    1    100.0   30 
20/02/19 12:30p   19.8   19.8   19.0    56   10.7   1.6    SW  0.80  17.7   WSW   19.8   19.4   19.4   25.4  1028.7  0.00   0.0   709    30.49   1234     5.6  1.20   7.9   0.000   0.030   27.0    38    0.00   679    1     99.3   30 
20/02/19  1:00p   20.5   20.5   19.6    52   10.3   1.6     S  0.80  17.7     S   20.5   19.8   19.8   26.0  1028.3  0.00   0.0   752    32.34   1239     6.2  1.33   8.1   0.000   0.045   27.2    41    0.43   699    1    100.0   30 
20/02/19  1:30p   20.8   20.9   20.3    51   10.3   1.6     S  0.80  17.7     S   20.8   20.0   20.0   25.3  1028.0  0.00   0.0   975    41.93   1169     7.2  1.54   8.2   0.000   0.051   27.3    40    0.00   699    1    100.0   30 
20/02/19  2:00p   22.1   22.1   20.8    50   11.2   3.2   SSW  1.61  17.7   WSW   22.1   21.6   21.6   27.6  1027.8  0.00   0.0  1033    44.42   1081     7.8  1.67   8.1   0.000   0.079   27.2    41    0.58   700    1    100.0   30 
20/02/19  2:30p   22.5   22.5   21.9    48   10.9   3.2     S  1.61  17.7   SSW   22.5   22.0   22.0   28.1  1027.8  0.00   0.0   991    42.62   1034     7.5  1.61   7.8   0.000   0.087   27.6    40    0.00   703    1    100.0   30 
20/02/19  3:00p   22.3   22.9   22.2    49   11.0   3.2     S  1.61  20.9     S   22.3   21.7   21.7   27.8  1027.6  0.00   0.0   934    40.17   1023     6.3  1.35   7.3   0.000   0.082   27.9    39    0.58   700    1    100.0   30 
20/02/19  3:30p   23.1   23.1   21.9    47   11.2   3.2     S  1.61  16.1     S   23.1   22.8   22.8   28.4  1027.1  0.00   0.0   795    34.19   1000     5.5  1.18   6.6   0.000   0.100   28.2    40    0.00   700    1    100.0   30 
20/02/19  4:00p   24.2   24.3   23.1    44   11.1   3.2   SSW  1.61  11.3     S   24.2   23.9   23.9   30.2  1026.7  0.00   0.0   791    34.02    919     4.7  1.01   5.5   0.000   0.122   28.1    40    0.48   702    1    100.0   30 
20/02/19  4:30p   23.3   24.2   23.0    46   11.1   3.2     S  1.61  16.1   WSW   23.3   23.1   23.1   27.3  1026.6  0.00   0.0   380    16.34    860     3.1  0.66   4.7   0.000   0.104   28.1    39    0.00   700    1    100.0   30 
20/02/19  5:00p   23.8   24.3   23.3    48   12.1   4.8    SW  2.41  17.7   SSE   23.8   23.7   23.7   29.9  1026.7  0.00   0.0   593    25.50    802     2.9  0.62   3.7   0.000   0.113   28.2    39    0.33   702    1    100.0   30 
20/02/19  5:30p   22.9   23.8   22.9    50   12.0   6.4     S  3.22  22.5     S   22.9   22.7   22.7   28.4  1026.8  0.00   0.0   470    20.21    707     2.1  0.45   2.8   0.000   0.096   28.4    38    0.00   700    1    100.0   30 
20/02/19  6:00p   22.9   22.9   22.5    51   12.2   3.2     S  1.61  20.9     W   22.9   22.7   22.7   27.3  1027.0  0.00   0.0   315    13.55    504     1.3  0.28   1.8   0.000   0.095   28.1    38    0.28   700    1    100.0   30 
20/02/19  6:30p   22.7   23.3   22.7    52   12.4   4.8   WSW  2.41  24.1   SSE   22.7   22.6   22.6   28.7  1027.4  0.00   0.0   357    15.35    434     0.9  0.19   1.2   0.000   0.091   27.8    39    0.00   700    1    100.0   30 
20/02/19  7:00p   21.7   22.7   21.7    56   12.6   3.2     S  1.61  20.9     S   21.7   21.2   21.2   25.1  1027.7  0.00   0.0   220     9.46    292     0.3  0.06   0.7   0.000   0.071   28.1    38    0.20   699    1    100.0   30 
20/02/19  7:30p   20.7   21.7   20.7    61   12.9   1.6     S  0.80  11.3     S   20.7   20.4   20.4   19.8  1027.9  0.00   0.0    84     3.61    155     0.0  0.00   0.0   0.000   0.050   28.2    39    0.00   699    1    100.0   30 
20/02/19  8:00p   19.7   20.7   19.7    66   13.2   0.0     S  0.00   9.7     S   19.7   19.8   19.8   18.4  1028.3  0.00   0.0    16     0.69     23     0.0  0.00   0.0   0.000   0.029   28.2    39    0.05   699    1    100.0   30 
20/02/19  8:30p   19.0   19.7   19.0    68   13.0   0.0   SSW  0.00   8.0   SSW   19.0   19.1   19.1   17.4  1028.6  0.00   0.0     2     0.09      9     0.0  0.00   0.0   0.000   0.014   27.9    39    0.00   701    1    100.0   30 
20/02/19  9:00p   18.4   19.0   18.4    69   12.7   0.0   SSW  0.00   4.8   SSW   18.4   18.4   18.4   16.8  1029.0  0.00   0.0     0     0.00      0     0.0  0.00   0.0   0.000   0.002   27.4    40    0.00   701    1    100.0   30 
20/02/19  9:30p   17.9   18.4   17.9    70   12.4   0.0   ---  0.00   0.0   ---   17.9   17.9   17.9   16.2  1029.4  0.00   0.0     0     0.00      0     0.0  0.00   0.0   0.008   0.000   27.0    39    0.00   700    1    100.0   30 
20/02/19 10:00p   18.2   18.2   17.9    73   13.3   0.0   SSW  0.00   4.8   SSW   18.2   18.3   18.3   16.7  1029.7  0.00   0.0     0     0.00      0     0.0  0.00   0.0   0.002   0.000   26.9    40    0.03   701    1    100.0   30 
20/02/19 10:30p   18.1   18.3   18.1    73   13.2   0.0   SSW  0.00   4.8   SSW   18.1   18.2   18.2   16.6  1030.1  0.00   0.0     0     0.00      0     0.0  0.00   0.0   0.005   0.000   26.9    40    0.00   701    1    100.0   30 
20/02/19 11:00p   17.6   18.2   17.6    74   12.9   0.0   ---  0.00   0.0   ---   17.6   17.6   17.6   15.9  1030.1  0.00   0.0     0     0.00      0     0.0  0.00   0.0   0.016   0.000   26.9    40    0.03   702    1    100.0   30 
20/02/19 11:30p   17.1   17.6   16.9    81   13.8   0.0   SSW  0.00  12.9   SSW   17.1   17.2   17.2   15.6  1030.1  0.00   0.0     0     0.00      0     0.0  0.00   0.0   0.027   0.000   26.8    41    0.00   700    1    100.0   30 
21/02/19 12:00a   16.9   17.1   16.9    86   14.6   0.0   SSW  0.00  11.3   SSW   16.9   17.2   17.2   15.6  1030.4  0.51   2.3     0     0.00      0     0.0  0.00   0.0   0.029   0.000   26.8    41    0.03   703    1    100.0   30 
21/02/19 12:30a   16.3   16.9   16.3    87   14.2   0.0   SSW  0.00  17.7   SSW   16.3   16.5   16.5   14.9  1030.5  0.00   0.0     0     0.00      0     0.0  0.00   0.0   0.042   0.000   26.8    41    0.00   700    1    100.0   30 
21/02/19  1:00a   16.3   16.4   16.3    85   13.8   0.0   SSW  0.00  24.1   SSW   16.3   16.4   16.4   14.8  1030.6  0.00   0.0     0     0.00      0     0.0  0.00   0.0   0.043   0.000   26.8    42    0.00   701    1    100.0   30 
21/02/19  1:30a   16.2   16.3   16.2    83   13.3   0.0   SSW  0.00  16.1   SSW   16.2   16.3   16.3   14.7  1030.7  0.00   0.0     0     0.00      0     0.0  0.00   0.0   0.044   0.000   26.8    42    0.00   700    1    100.0   30 
21/02/19  2:00a   15.7   16.2   15.7    84   13.0   0.0   ---  0.00   0.0   ---   15.7   15.8   15.8   14.2  1030.5  0.00   0.0     0     0.00      0     0.0  0.00   0.0   0.054   0.000   26.8    42    0.03   702    1    100.0   30 
21/02/19  2:30a   15.2   15.7   15.2    87   13.0   0.0   ---  0.00   0.0   ---   15.2   15.2   15.2   13.6  1030.4  0.00   0.0     0     0.00      0     0.0  0.00   0.0   0.066   0.000   26.7    42    0.00   667    1     97.5   30 
21/02/19  3:00a   15.0   15.2   14.9    88   13.0   0.0   SSW  0.00   3.2   SSW   15.0   15.1   15.1   13.4  1030.3  0.00   0.0     0     0.00      0     0.0  0.00   0.0   0.069   0.000   26.8    42    0.00   702    1    100.0   30 
21/02/19  3:30a   14.8   15.0   14.8    85   12.3   0.0   SSW  0.00  12.9   SSW   14.8   14.8   14.8   13.2  1030.4  0.00   0.0     0     0.00      0     0.0  0.00   0.0   0.073   0.000   26.7    42    0.00   701    1    100.0   30 
21/02/19  4:00a   14.7   14.8   14.7    84   12.0   0.0   SSW  0.00   8.0   SSW   14.7   14.6   14.6   12.9  1030.4  0.00   0.0     0     0.00      0     0.0  0.00   0.0   0.076   0.000   26.8    42    0.00   701    1    100.0   30 
21/02/19  4:30a   14.6   14.7   14.5    85   12.1   0.0   ---  0.00   0.0   ---   14.6   14.5   14.5   12.8  1030.5  0.00   0.0     0     0.00      0     0.0  0.00   0.0   0.079   0.000   26.8    41    0.00   700    1    100.0   30 
21/02/19  5:00a   14.1   14.6   14.1    85   11.6   0.0   ---  0.00   0.0   ---   14.1   14.1   14.1   12.3  1030.6  0.00   0.0     0     0.00      0     0.0  0.00   0.0   0.088   0.000   26.7    42    0.00   701    1    100.0   30 
21/02/19  5:30a   13.8   14.1   13.8    86   11.5   0.0   ---  0.00   0.0   ---   13.8   13.8   13.8   12.1  1030.8  0.00   0.0     0     0.00      0     0.0  0.00   0.0   0.094   0.000   26.8    42    0.00   701    1    100.0   30 
21/02/19  6:00a   14.0   14.0   13.8    84   11.3   0.0   SSW  0.00   1.6   SSW   14.0   13.9   13.9   12.2  1031.0  0.00   0.0     0     0.00      0     0.0  0.00   0.0   0.090   0.000   26.8    42    0.00   699    1    100.0   30 
21/02/19  6:30a   13.6   14.0   13.6    84   11.0   0.0   SSW  0.00   3.2   SSW   13.6   13.6   13.6   11.8  1031.3  0.00   0.0     0     0.00      0     0.0  0.00   0.0   0.098   0.000   26.8    41    0.00   701    1    100.0   30 
21/02/19  7:00a   13.4   13.6   13.3    86   11.1   0.0   ---  0.00   0.0   ---   13.4   13.3   13.3   12.2  1031.5  0.00   0.0     0     0.00      0     0.0  0.00   0.0   0.103   0.000   26.8    41    0.00   702    1    100.0   30 
21/02/19  7:30a   13.4   13.5   13.4    86   11.1   0.0   ---  0.00   0.0   ---   13.4   13.4   13.4   12.7  1032.0  0.00   0.0    17     0.73     30     0.0  0.00   0.0   0.102   0.000   26.8    41    0.00   701    1    100.0   30 
21/02/19  8:00a   13.6   13.6   13.4    86   11.3   0.0   ---  0.00   0.0   ---   13.6   13.5   13.5   13.1  1032.3  0.00   0.0    32     1.38     39     0.0  0.00   0.0   0.100   0.000   26.8    41    0.03   702    1    100.0   30 
21/02/19  8:30a   13.9   13.9   13.6    85   11.4   0.0   ---  0.00   0.0   ---   13.9   13.8   13.8   13.5  1032.8  0.00   0.0    38     1.63     79     0.0  0.00   0.0   0.093   0.000   26.8    41    0.00   702    1    100.0   30 
21/02/19  9:00a   14.7   14.7   13.8    84   12.0   0.0   ---  0.00   0.0   ---   14.7   14.6   14.6   15.7  1033.1  0.00   0.0   122     5.25    179     0.0  0.00   0.5   0.076   0.000   26.8    41    0.05   703    1    100.0   30 
21/02/19  9:30a   16.0   16.0   14.7    79   12.4   0.0    SW  0.00   1.6    SW   16.0   15.9   15.9   17.9  1033.3  0.00   0.0   188     8.09    243     0.7  0.15   0.8   0.049   0.000   26.7    42    0.00   700    1    100.0   30 
21/02/19 10:00a   16.8   16.8   16.0    74   12.2   0.0    SW  0.00   3.2    SW   16.8   16.7   16.7   18.6  1033.6  0.00   0.0   197     8.47    223     0.9  0.19   1.0   0.031   0.000   26.7    43    0.10   702    1    100.0   30 
21/02/19 10:30a   17.3   17.3   16.8    70   11.8   0.0    SW  0.00   4.8    SW   17.3   17.1   17.1   18.5  1033.8  0.00   0.0   173     7.44    216     0.9  0.19   1.3   0.022   0.000   26.7    43    0.00   702    1    100.0   30 
21/02/19 11:00a   18.3   18.3   17.3    60   10.4   1.6    SW  0.80  16.1   WSW   18.3   17.8   17.8   20.7  1034.1  0.00   0.0   304    13.07    380     1.9  0.41   2.4   0.001   0.000   26.8    44    0.13   701    1    100.0   30 
21/02/19 11:30a   18.2   18.4   18.2    59   10.1   3.2   SSE  1.61  17.7     S   18.2   17.7   17.7   21.2  1034.3  0.00   0.0   363    15.61    397     2.4  0.51   2.7   0.002   0.000   26.9    43    0.00   674    1     98.5   30 
21/02/19 12:00p   18.7   18.9   18.2    59   10.5   1.6     S  0.80  16.1   ESE   18.7   18.3   18.3   22.4  1034.3  0.00   0.0   427    18.36    499     3.1  0.66   3.8   0.000   0.008   26.9    43    0.25   700    1    100.0   30 
21/02/19 12:30p   19.1   19.2   18.7    57   10.3   1.6     S  0.80  16.1   SSW   19.1   18.6   18.6   22.5  1034.2  0.00   0.0   410    17.63    476     3.2  0.69   3.9   0.000   0.015   26.9    42    0.00   700    1    100.0   30 
21/02/19  1:00p   20.2   20.3   19.1    53   10.3   3.2     S  1.61  16.1     S   20.2   19.6   19.6   25.6  1034.1  0.00   0.0   691    29.72   1136     5.9  1.26   7.9   0.000   0.039   26.9    41    0.36   700    1    100.0   30 
21/02/19  1:30p   21.1   21.4   20.2    51   10.6   3.2    SW  1.61  17.7   SSE   21.1   20.2   20.2   26.3  1034.0  0.00   0.0  1072    46.10   1197     7.1  1.52   7.9   0.000   0.058   27.0    41    0.00   699    1    100.0   30 
21/02/19  2:00p   20.4   21.2   20.3    55   11.1   3.2     S  1.61  24.1   WSW   20.4   19.9   19.9   25.6  1033.8  0.00   0.0   645    27.74   1132     5.6  1.20   8.4   0.000   0.044   27.2    42    0.51   702    1    100.0   30 
21/02/19  2:30p   20.9   21.1   20.4    53   10.9   3.2     S  1.61  17.7    SE   20.9   20.2   20.2   24.8  1033.8  0.00   0.0   485    20.86    853     5.1  1.09   7.7   0.000   0.053   27.6    39    0.00   701    1    100.0   30 
21/02/19  3:00p   21.7   21.7   20.9    54   12.0   3.2     S  1.61  17.7     S   21.7   21.2   21.2   27.3  1033.6  0.00   0.0   750    32.25   1199     5.2  1.11   7.7   0.000   0.071   27.7    39    0.43   700    1    100.0   30 
21/02/19  3:30p   20.8   21.8   20.8    56   11.7   3.2     S  1.61  17.7     S   20.8   20.2   20.2   24.8  1033.5  0.00   0.0   454    19.52   1209     3.6  0.77   6.3   0.000   0.052   27.6    40    0.00   699    1    100.0   30 
21/02/19  4:00p   20.7   21.1   20.7    57   11.9   3.2     S  1.61  16.1   SSE   20.7   20.2   20.2   24.7  1033.3  0.00   0.0   424    18.23   1009     3.1  0.66   5.6   0.000   0.050   27.7    40    0.30   702    1    100.0   30 
21/02/19  4:30p   21.2   21.9   20.6    56   12.0   3.2   SSE  1.61  19.3   WSW   21.2   20.5   20.5   25.9  1033.2  0.00   0.0   499    21.46    946     3.3  0.71   4.5   0.000   0.059   27.7    40    0.00   701    1    100.0   30 
21/02/19  5:00p   20.7   21.3   20.6    57   11.8   3.2     S  1.61  20.9     S   20.7   20.2   20.2   24.9  1033.3  0.00   0.0   386    16.60    965     2.3  0.49   3.8   0.000   0.049   27.8    40    0.33   701    1    100.0   30 
21/02/19  5:30p   20.8   20.8   20.4    56   11.7   4.8   SSW  2.41  20.9   SSE   20.8   20.2   20.2   26.6  1033.5  0.00   0.0   513    22.06    619     2.0  0.43   2.6   0.000   0.051   27.9    40    0.00   702    1    100.0   30 
21/02/19  6:00p   20.7   21.2   20.7    55   11.3   4.8   SSW  2.41  17.7   WSW   20.7   20.1   20.1   26.0  1033.7  0.00   0.0   411    17.68    480     1.4  0.30   1.7   0.000   0.049   27.7    39    0.28   701    1    100.0   30 
21/02/19  6:30p   20.4   20.7   20.3    57   11.6   4.8     S  2.41  20.9   WSW   20.4   20.0   20.0   25.2  1033.7  0.00   0.0   313    13.46    366     0.8  0.17   1.1   0.000   0.044   27.3    39    0.00   701    1    100.0   30 
21/02/19  7:00p   19.9   20.4   19.9    59   11.7   3.2     S  1.61  19.3     S   19.9   19.7   19.7   23.2  1033.7  0.00   0.0   205     8.82    258     0.2  0.04   0.6   0.000   0.034   27.1    39    0.18   700    1    100.0   30 
21/02/19  7:30p   19.1   20.0   19.1    59   10.9   3.2     S  1.61  14.5     S   19.1   18.7   18.7   17.9  1033.8  0.00   0.0    79     3.40    142     0.0  0.00   0.0   0.000   0.015   26.7    39    0.00   699    1    100.0   30 
21/02/19  8:00p   18.3   19.1   18.3    61   10.6   0.0     S  0.00  14.5   SSW   18.3   17.9   17.9   16.3  1034.2  0.00   0.0    17     0.73     26     0.0  0.00   0.0   0.001   0.000   26.6    39    0.05   700    1    100.0   30 
21/02/19  8:30p   17.7   18.3   17.7    63   10.5   0.0     S  0.00  12.9     S   17.7   17.3   17.3   15.5  1034.7  0.00   0.0     1     0.04      7     0.0  0.00   0.0   0.014   0.000   26.6    39    0.00   701    1    100.0   30 
21/02/19  9:00p   17.1   17.7   17.1    67   10.9   0.0   SSW  0.00  11.3   SSW   17.1   16.8   16.8   15.1  1035.0  0.00   0.0     0     0.00      0     0.0  0.00   0.0   0.025   0.000   26.6    39    0.00   669    1     97.8   30 
21/02/19  9:30p   16.5   17.1   16.5    71   11.2   0.0     S  0.00   9.7     S   16.5   16.2   16.2   14.5  1035.4  0.00   0.0     0     0.00      0     0.0  0.00   0.0   0.038   0.000   26.5    39    0.00   698    1    100.0   30 
21/02/19 10:00p   16.1   16.5   16.1    73   11.2   0.0   ---  0.00   0.0   ---   16.1   15.8   15.8   14.1  1035.5  0.00   0.0     0     0.00      0     0.0  0.00   0.0   0.047   0.000   26.5    39    0.03   702    1    100.0   30 
21/02/19 10:30p   15.6   16.1   15.6    75   11.1   0.0   ---  0.00   0.0   ---   15.6   15.3   15.3   13.6  1035.6  0.00   0.0     0     0.00      0     0.0  0.00   0.0   0.058   0.000   26.6    39    0.00   700    1    100.0   30 
21/02/19 11:00p   15.2   15.6   15.2    77   11.2   0.0   ---  0.00   0.0   ---   15.2   14.9   14.9   13.2  1035.8  0.00   0.0     0     0.00      0     0.0  0.00   0.0   0.066   0.000   26.5    39    0.03   701    1    100.0   30 
21/02/19 11:30p   14.9   15.2   14.9    79   11.3   0.0   ---  0.00   0.0   ---   14.9   14.8   14.8   13.1  1035.9  0.00   0.0     0     0.00      0     0.0  0.00   0.0   0.071   0.000   26.5    39    0.00   701    1    100.0   30 
22/02/19 12:00a   14.4   14.9   14.4    80   11.0   0.0   ---  0.00   0.0   ---   14.4   14.3   14.3   12.6  1035.7  0.00   0.0     0     0.00      0     0.0  0.00   0.0   0.082   0.000   26.6    39    0.03   698    1    100.0   30 
22/02/19 12:30a   14.1   14.4   14.1    83   11.3   0.0   ---  0.00   0.0   ---   14.1   14.0   14.0   12.3  1035.8  0.00   0.0     0     0.00      0     0.0  0.00   0.0   0.088   0.000   26.5    39    0.00   700    1    100.0   30 
22/02/19  1:00a   14.2   14.2   14.1    83   11.4   0.0   ---  0.00   0.0   ---   14.2   14.1   14.1   12.4  1035.8  0.00   0.0     0     0.00      0     0.0  0.00   0.0   0.086   0.000   26.5    39    0.03   694    1    100.0   30 
22/02/19  1:30a   14.4   14.4   14.2    84   11.7   0.0   ---  0.00   0.0   ---   14.4   14.3   14.3   12.7  1035.9  0.00   0.0     0     0.00      0     0.0  0.00   0.0   0.082   0.000   26.6    39    0.00   702    1    100.0   30 
22/02/19  2:00a   14.6   14.6   14.4    84   11.9   0.0   ---  0.00   0.0   ---   14.6   14.6   14.6   12.9  1035.6  0.00   0.0     0     0.00      0     0.0  0.00   0.0   0.078   0.000   26.6    39    0.00   701    1    100.0   30 
22/02/19  2:30a   15.2   15.2   14.6    79   11.6   0.0     S  0.00   6.4     S   15.2   15.1   15.1   13.4  1035.5  0.00   0.0     0     0.00      0     0.0  0.00   0.0   0.065   0.000   26.5    40    0.03   700    1    100.0   30 
22/02/19  3:00a   15.6   15.6   15.2    76   11.3   0.0   ---  0.00   0.0   ---   15.6   15.4   15.4   13.7  1035.5  0.00   0.0     0     0.00      0     0.0  0.00   0.0   0.058   0.000   26.5    40    0.03   702    1    100.0   30 
22/02/19  3:30a   16.2   16.2   15.6    74   11.5   0.0     S  0.00  19.3     S   16.2   15.9   15.9   14.2  1035.3  0.00   0.0     0     0.00      0     0.0  0.00   0.0   0.045   0.000   26.6    39    0.00   703    1    100.0   30 
22/02/19  4:00a   16.2   16.2   16.1    74   11.5   0.0     S  0.00  19.3     S   16.2   15.9   15.9   14.2  1035.1  0.00   0.0     0     0.00      0     0.0  0.00   0.0   0.045   0.000   26.5    40    0.03   671    1     98.1   30 
22/02/19  4:30a   16.1   16.1   16.1    75   11.7   0.0   ---  0.00   0.0   ---   16.1   15.9   15.9   14.3  1035.2  0.00   0.0     0     0.00      0     0.0  0.00   0.0   0.046   0.000   26.5    40    0.00   700    1    100.0   30 
22/02/19  5:00a   16.1   16.1   16.1    76   11.8   0.0     S  0.00   9.7     S   16.1   15.9   15.9   14.3  1035.1  0.00   0.0     0     0.00      0     0.0  0.00   0.0   0.047   0.000   26.6    40    0.03   701    1    100.0   30 
22/02/19  5:30a   16.1   16.1   16.0    75   11.6   0.0     S  0.00  19.3     S   16.1   15.9   15.9   14.2  1035.3  0.00   0.0     0     0.00      0     0.0  0.00   0.0   0.047   0.000   26.6    40    0.00   700    1    100.0   30 
22/02/19  6:00a   15.9   16.1   15.9    76   11.7   0.0     S  0.00  16.1     S   15.9   15.7   15.7   14.0  1035.4  0.00   0.0     0     0.00      0     0.0  0.00   0.0   0.051   0.000   26.6    39    0.03   701    1    100.0   30 
22/02/19  6:30a   15.8   15.9   15.8    77   11.8   0.0   ---  0.00   0.0   ---   15.8   15.7   15.7   14.0  1035.7  0.00   0.0     0     0.00      0     0.0  0.00   0.0   0.053   0.000   26.5    40    0.00   700    1    100.0   30 
22/02/19  7:00a   15.8   15.8   15.8    76   11.6   0.0   ---  0.00   0.0   ---   15.8   15.7   15.7   13.9  1036.2  0.00   0.0     0     0.00      5     0.0  0.00   0.0   0.052   0.000   26.5    40    0.00   698    1    100.0   30 
22/02/19  7:30a   15.9   15.9   15.8    76   11.7   0.0   ---  0.00   0.0   ---   15.9   15.8   15.8   15.1  1036.4  0.00   0.0    17     0.73     32     0.0  0.00   0.0   0.050   0.000   26.6    40    0.00   702    1    100.0   30 
22/02/19  8:00a   16.3   16.3   15.9    73   11.4   0.0     S  0.00   3.2     S   16.3   16.1   16.1   16.3  1036.7  0.00   0.0    59     2.54     86     0.0  0.00   0.0   0.043   0.000   26.6    40    0.03   701    1    100.0   30 
22/02/19  8:30a   16.7   16.7   16.3    70   11.2   1.6     S  0.80  22.5    SE   16.7   16.4   16.4   17.8  1036.9  0.00   0.0   127     5.46    265     0.0  0.00   0.0   0.035   0.000   26.5    40    0.00   701    1    100.0   30 
22/02/19  9:00a   17.5   17.5   16.7    67   11.3   1.6     S  0.80  16.1     S   17.5   17.3   17.3   20.5  1037.1  0.00   0.0   255    10.97    559     0.5  0.11   1.0   0.017   0.000   26.5    40    0.13   700    1    100.0   30 
22/02/19  9:30a   18.1   18.1   17.3    65   11.4   1.6     S  0.80  12.9     S   18.1   17.8   17.8   22.8  1037.1  0.00   0.0   435    18.71    499     1.3  0.28   1.6   0.006   0.000   26.6    40    0.00   701    1    100.0   30 
22/02/19 10:00a   18.9   18.9   18.1    63   11.7   1.6   SSE  0.80  14.5     S   18.9   18.7   18.7   24.2  1037.0  0.00   0.0   537    23.09    582     2.0  0.43   2.4   0.000   0.012   26.7    40    0.28   700    1    100.0   30 
22/02/19 10:30a   19.6   19.6   18.9    61   11.8   1.6     S  0.80  16.1     S   19.6   19.3   19.3   25.2  1037.2  0.00   0.0   631    27.14    686     2.8  0.60   3.3   0.000   0.025   26.6    42    0.00   703    1    100.0   30 
22/02/19 11:00a   19.8   20.2   19.6    60   11.8   3.2     S  1.61  14.5   SSE   19.8   19.6   19.6   25.6  1037.2  0.00   0.0   716    30.79    747     3.8  0.81   4.2   0.000   0.030   26.7    43    0.41   701    1    100.0   30 
22/02/19 11:30a   20.4   20.4   19.8    58   11.9   3.2     S  1.61  16.1     S   20.4   20.1   20.1   26.2  1037.1  0.00   0.0   785    33.76    819     4.7  1.01   5.2   0.000   0.044   26.8    42    0.00   702    1    100.0   30 
22/02/19 12:00p   21.3   21.3   20.4    54   11.6   1.6     S  0.80  19.3   SSE   21.3   20.6   20.6   26.7  1036.8  0.00   0.0   846    36.38    870     5.6  1.20   6.0   0.000   0.063   27.0    42    0.48   701    1    100.0   30 
22/02/19 12:30p   22.7   22.7   21.3    50   11.7   1.6   SSE  0.80  19.3   SSW   22.7   22.3   22.3   28.4  1036.7  0.00   0.0   892    38.36    909     6.4  1.37   6.7   0.000   0.090   27.1    41    0.00   701    1    100.0   30 
22/02/19  1:00p   22.8   22.8   22.3    49   11.6   1.6     S  0.80  16.1     S   22.8   22.5   22.5   28.3  1036.4  0.00   0.0   922    39.65    932     6.9  1.48   7.1   0.000   0.094   27.3    41    0.56   701    1    100.0   30 
22/02/19  1:30p   23.4   23.6   22.8    47   11.4   3.2     S  1.61  16.1   SSW   23.4   23.2   23.2   28.4  1036.2  0.00   0.0   936    40.25    942     7.2  1.54   7.3   0.000   0.105   27.6    42    0.00   672    1     98.2   30 
22/02/19  2:00p   24.0   24.0   23.3    46   11.7   3.2     S  1.61  19.3     S   24.0   23.9   23.9   29.2  1035.9  0.00   0.0   934    40.17    940     7.3  1.56   7.3   0.000   0.118   27.8    43    0.58   702    1    100.0   30 
22/02/19  2:30p   24.5   24.6   24.0    45   11.8   3.2     S  1.61  19.3   WSW   24.5   24.3   24.3   29.9  1035.7  0.00   0.0   917    39.44    928     7.0  1.50   7.2   0.000   0.128   27.8    42    0.00   700    1    100.0   30 
22/02/19  3:00p   24.2   24.7   24.2    49   12.8   4.8     S  2.41  25.7     S   24.2   24.2   24.2   30.0  1035.5  0.00   0.0   880    37.84    900     6.5  1.39   6.7   0.000   0.122   27.7    42    0.58   702    1    100.0   30 
22/02/19  3:30p   24.4   24.7   24.2    49   13.0   4.8     S  2.41  17.7   SSE   24.4   24.4   24.4   30.4  1035.3  0.00   0.0   832    35.78    856     5.7  1.22   6.1   0.000   0.127   27.9    42    0.00   699    1    100.0   30 
22/02/19  4:00p   23.9   24.8   23.9    51   13.2   6.4     S  3.22  17.7   SSE   23.9   24.1   24.1   30.3  1035.2  0.00   0.0   771    33.16    800     4.9  1.05   5.3   0.000   0.117   28.2    40    0.53   702    1    100.0   30 
22/02/19  4:30p   23.9   24.2   23.8    53   13.7   6.4    SW  3.22  19.3   SSW   23.9   24.1   24.1   30.6  1035.1  0.00   0.0   697    29.97    737     4.0  0.86   4.4   0.000   0.116   28.4    39    0.00   702    1    100.0   30 
22/02/19  5:00p   23.8   23.9   23.7    54   14.0   4.8    SW  2.41  20.9   WSW   23.8   24.1   24.1   30.7  1035.0  0.00   0.0   614    26.41    656     3.0  0.64   3.5   0.000   0.115   27.9    40    0.43   699    1    100.0   30 
22/02/19  5:30p   23.4   23.9   23.3    55   13.9   4.8   WSW  2.41  19.3   WSW   23.4   23.6   23.6   30.2  1035.0  0.00   0.0   520    22.36    566     2.2  0.47   2.6   0.000   0.106   27.7    40    0.00   702    1    100.0   30 
22/02/19  6:00p   23.8   24.3   23.4    49   12.5   6.4     S  3.22  17.7   SSW   23.8   23.8   23.8   30.1  1035.1  0.00   0.0   420    18.06    469     1.5  0.32   1.8   0.000   0.115   27.4    41    0.33   674    1     98.5   30 
22/02/19  6:30p   22.7   23.8   22.7    55   13.2   6.4     S  3.22  19.3   SSW   22.7   22.6   22.6   27.9  1035.4  0.00   0.0   314    13.50    364     0.9  0.19   1.2   0.000   0.090   27.2    42    0.00   701    1    100.0   30 
22/02/19  7:00p   21.4   22.7   21.4    59   13.0   4.8     S  2.41  19.3     S   21.4   20.9   20.9   24.6  1035.7  0.00   0.0   206     8.86    262     0.3  0.06   0.6   0.000   0.064   27.0    43    0.20   702    1    100.0   30 
22/02/19  7:30p   20.2   21.4   20.2    62   12.7   3.2     S  1.61  16.1   SSE   20.2   20.1   20.1   19.3  1036.0  0.00   0.0    74     3.18    144     0.0  0.00   0.0   0.000   0.039   26.8    42    0.00   699    1    100.0   30 
22/02/19  8:00p   18.9   20.2   18.9    67   12.7   1.6     S  0.80  14.5     S   18.9   18.9   18.9   17.4  1036.4  0.00   0.0    14     0.60     19     0.0  0.00   0.0   0.000   0.013   26.7    43    0.05   701    1    100.0   30 
22/02/19  8:30p   17.8   18.9   17.8    72   12.7   1.6     S  0.80  16.1   SSE   17.8   17.7   17.7   16.1  1036.8  0.00   0.0     1     0.04      7     0.0  0.00   0.0   0.012   0.000   26.6    45    0.00   701    1    100.0   30 
22/02/19  9:00p   17.0   17.8   17.0    75   12.5   1.6     S  0.80  16.1     S   17.0   16.9   16.9   15.3  1037.1  0.00   0.0     0     0.00      0     0.0  0.00   0.0   0.028   0.000   26.7    47    0.00   702    1    100.0   30 
22/02/19  9:30p   16.4   17.0   16.4    77   12.4   1.6     S  0.80  16.1     S   16.4   16.4   16.4   14.7  1037.4  0.00   0.0     0     0.00      0     0.0  0.00   0.0   0.039   0.000   26.6    45    0.00   697    1    100.0   30 
22/02/19 10:00p   16.1   16.4   16.1    79   12.5   0.0     S  0.00  16.1   SSE   16.1   16.1   16.1   14.4  1037.8  0.00   0.0     0     0.00      0     0.0  0.00   0.0   0.046   0.000   26.6    46    0.03   680    1     99.4   30 
22/02/19 10:30p   16.2   16.2   16.1    79   12.6   0.0     S  0.00  16.1     S   16.2   16.2   16.2   14.6  1037.7  0.00   0.0     0     0.00      0     0.0  0.00   0.0   0.044   0.000   26.7    45    0.00   701    1    100.0   30 
22/02/19 11:00p   16.3   16.3   16.2    78   12.4   1.6     S  0.80  24.1     S   16.3   16.2   16.2   14.6  1037.8  0.00   0.0     0     0.00      0     0.0  0.00   0.0   0.043   0.000   26.6    45    0.03   702    1    100.0   30 
22/02/19 11:30p   16.2   16.3   16.2    77   12.2   1.6     S  0.80  22.5   SSW   16.2   16.1   16.1   14.4  1037.8  0.00   0.0     0     0.00      0     0.0  0.00   0.0   0.044   0.000   26.7    44    0.00   700    1    100.0   30 
23/02/19 12:00a   16.2   16.2   16.2    77   12.1   1.6   SSE  0.80  29.0   SSE   16.2   16.1   16.1   14.4  1037.8  0.00   0.0     0     0.00      0     0.0  0.00   0.0   0.045   0.000   26.6    43    0.03   702    1    100.0   30 
23/02/19 12:30a   16.2   16.2   16.2    77   12.1   1.6     S  0.80  20.9     S   16.2   16.1   16.1   14.4  1037.7  0.00   0.0     0     0.00      0     0.0  0.00   0.0   0.045   0.000   26.6    43    0.00   700    1    100.0   30 
23/02/19  1:00a   16.2   16.2   16.1    76   11.9   1.6     S  0.80  22.5     S   16.2   16.1   16.1   14.4  1037.6  0.00   0.0     0     0.00      0     0.0  0.00   0.0   0.045   0.000   26.7    43    0.03   700    1    100.0   30 
23/02/19  1:30a   15.8   16.2   15.8    77   11.8   0.0     S  0.00  22.5     S   15.8   15.7   15.7   14.1  1037.4  0.00   0.0     0     0.00      0     0.0  0.00   0.0   0.052   0.000   26.6    42    0.00   702    1    100.0   30 
23/02/19  2:00a   15.6   15.8   15.6    78   11.7   0.0   ---  0.00   0.0   ---   15.6   15.4   15.4   13.8  1037.4  0.00   0.0     0     0.00      0     0.0  0.00   0.0   0.058   0.000   26.6    42    0.03   700    1    100.0   30 
23/02/19  2:30a   15.7   15.7   15.6    78   11.8   0.0     S  0.00  25.7     S   15.7   15.6   15.6   13.9  1037.1  0.00   0.0     0     0.00      0     0.0  0.00   0.0   0.056   0.000   26.6    42    0.00   700    1    100.0   30 
23/02/19  3:00a   15.7   15.7   15.6    78   11.8   0.0   ---  0.00   0.0   ---   15.7   15.6   15.6   13.9  1037.1  0.00   0.0     0     0.00      0     0.0  0.00   0.0   0.056   0.000   26.7    42    0.03   703    1    100.0   30 
23/02/19  3:30a   15.7   15.7   15.7    78   11.9   0.0   ---  0.00   0.0   ---   15.7   15.6   15.6   13.9  1037.1  0.00   0.0     0     0.00      0     0.0  0.00   0.0   0.054   0.000   26.6    42    0.00   700    1    100.0   30 
23/02/19  4:00a   15.8   15.8   15.7    77   11.8   0.0   ---  0.00   0.0   ---   15.8   15.7   15.7   14.0  1036.9  0.00   0.0     0     0.00      0     0.0  0.00   0.0   0.053   0.000   26.6    42    0.03   701    1    100.0   30 
23/02/19  4:30a   15.8   15.8   15.7    77   11.8   0.0   ---  0.00   0.0   ---   15.8   15.7   15.7   14.0  1036.9  0.00   0.0     0     0.00      0     0.0  0.00   0.0   0.053   0.000   26.6    42    0.00   700    1    100.0   30 
23/02/19  5:00a   15.8   15.8   15.8    77   11.8   0.0     S  0.00  17.7     S   15.8   15.7   15.7   14.1  1037.0  0.00   0.0     0     0.00      0     0.0  0.00   0.0   0.052   0.000   26.7    41    0.03   700    1    100.0   30 
23/02/19  5:30a   15.8   15.9   15.8    77   11.8   1.6     S  0.80  22.5   ESE   15.8   15.7   15.7   14.1  1037.2  0.00   0.0     0     0.00      0     0.0  0.00   0.0   0.052   0.000   26.7    41    0.00   701    1    100.0   30 
23/02/19  6:00a   15.8   15.8   15.8    77   11.8   0.0     S  0.00  17.7   SSE   15.8   15.7   15.7   14.0  1037.4  0.00   0.0     0     0.00      0     0.0  0.00   0.0   0.053   0.000   26.7    41    0.03   701    1    100.0   30 
23/02/19  6:30a   15.8   15.8   15.7    77   11.8   0.0   ESE  0.00  12.9   ESE   15.8   15.7   15.7   14.0  1037.4  0.00   0.0     0     0.00      0     0.0  0.00   0.0   0.053   0.000   26.6    41    0.00   700    1    100.0   30 
23/02/19  7:00a   15.8   15.8   15.7    77   11.8   0.0   ---  0.00   0.0   ---   15.8   15.7   15.7   14.1  1037.7  0.00   0.0     0     0.00      0     0.0  0.00   0.0   0.052   0.000   26.6    41    0.00   701    1    100.0   30 
23/02/19  7:30a   16.0   16.0   15.8    76   11.8   1.6     S  0.80  22.5     S   16.0   15.8   15.8   15.1  1038.1  0.00   0.0    13     0.56     25     0.0  0.00   0.0   0.049   0.000   26.6    41    0.00   700    1    100.0   30 
23/02/19  8:00a   16.2   16.2   15.9    76   11.9   0.0   ESE  0.00  16.1   ESE   16.2   16.1   16.1   16.1  1038.4  0.00   0.0    48     2.06     70     0.0  0.00   0.0   0.045   0.000   26.6    41    0.03   699    1    100.0   30 
23/02/19  8:30a   16.6   16.6   16.2    74   11.9   0.0     S  0.00  19.3   SSE   16.6   16.4   16.4   17.5  1038.5  0.00   0.0   109     4.69    156     0.0  0.00   0.0   0.037   0.000   26.7    41    0.00   702    1    100.0   30 
23/02/19  9:00a   16.9   16.9   16.6    73   12.1   1.6   ESE  0.80  29.0    SE   16.9   16.8   16.8   18.9  1038.8  0.00   0.0   182     7.83    302     0.4  0.09   0.9   0.029   0.000   26.5    41    0.08   673    1     98.4   30 
23/02/19  9:30a   17.4   17.4   16.9    71   12.1   1.6     S  0.80  16.1   SSE   17.4   17.3   17.3   20.5  1038.8  0.00   0.0   277    11.91    561     1.1  0.24   1.7   0.020   0.000   26.6    41    0.00   702    1    100.0   30 
23/02/19 10:00a   19.2   19.2   17.4    66   12.7   1.6     S  0.80  11.3     S   19.2   19.2   19.2   25.1  1038.8  0.00   0.0   589    25.33    671     2.1  0.45   2.6   0.000   0.019   26.6    40    0.25   702    1    100.0   30 
23/02/19 10:30a   19.8   19.8   19.1    64   12.8   0.0     S  0.00  16.1   WSW   19.8   19.8   19.8   25.7  1038.7  0.00   0.0   650    27.95    693     3.0  0.64   3.4   0.000   0.030   26.6    41    0.00   701    1    100.0   30 
23/02/19 11:00a   20.2   20.2   19.8    60   12.2   1.6     S  0.80  12.9   SSW   20.2   20.0   20.0   26.1  1038.5  0.00   0.0   702    30.19    737     3.9  0.84   4.4   0.000   0.039   26.6    41    0.38   702    1    100.0   30 
23/02/19 11:30a   21.5   21.5   20.2    57   12.6   1.6     S  0.80  14.5   WSW   21.5   21.0   21.0   27.2  1038.4  0.00   0.0   777    33.42    807     4.9  1.05   5.3   0.000   0.066   26.6    41    0.00   678    1     99.1   30